Wetterdaten: Mittwoch, 06.09.2023
Datum Zeit Temp. Aussen Temp. o. S. Temp +5cm Feuchte Auss Luftdruck Regen Sonnenschein Regendauer Solar Windben Empfang
06.09.2023 00:00 22,5 C 21,1 C 17,8 C 72 % 1019,1 hPa 0,0 l/m 0 min 0 min 0 W/m 9,7 km/h (2 Bft) 100,00 %
06.09.2023 00:02 22,4 C 21,1 C 17,8 C 73 % 1019,1 hPa 0,0 l/m 0 min 0 min 0 W/m 3,2 km/h (1 Bft) 100,00 %
06.09.2023 00:04 22,4 C 21,1 C 17,8 C 73 % 1019,1 hPa 0,0 l/m 0 min 0 min 0 W/m 6,4 km/h (2 Bft) 100,00 %
06.09.2023 00:08 22,3 C 21,1 C 17,2 C 73 % 1019,1 hPa 0,0 l/m 0 min 0 min 0 W/m 6,4 km/h (2 Bft) 99,04 %
06.09.2023 00:10 22,3 C 21,1 C 17,2 C 73 % 1019,1 hPa 0,0 l/m 0 min 0 min 0 W/m 6,4 km/h (2 Bft) 97,87 %
06.09.2023 00:12 22,3 C 21,1 C 17,2 C 73 % 1019,1 hPa 0,0 l/m 0 min 0 min 0 W/m 3,2 km/h (1 Bft) 97,87 %
06.09.2023 00:14 22,2 C 21,1 C 17,2 C 73 % 1019,1 hPa 0,0 l/m 0 min 0 min 0 W/m 3,2 km/h (1 Bft) 97,87 %
06.09.2023 00:16 22,2 C 20,6 C 17,2 C 73 % 1019,2 hPa 0,0 l/m 0 min 0 min 0 W/m 3,2 km/h (1 Bft) 97,87 %
06.09.2023 00:18 22,2 C 20,6 C 17,2 C 73 % 1019,2 hPa 0,0 l/m 0 min 0 min 0 W/m 12,9 km/h (3 Bft) 97,87 %
06.09.2023 00:20 22,2 C 20,6 C 17,2 C 73 % 1019,2 hPa 0,0 l/m 0 min 0 min 0 W/m 12,9 km/h (3 Bft) 97,83 %
06.09.2023 00:22 22,1 C 20,6 C 17,2 C 74 % 1019,3 hPa 0,0 l/m 0 min 0 min 0 W/m 0,0 km/h (0 Bft) 97,87 %
06.09.2023 00:24 22,1 C 20,6 C 17,2 C 74 % 1019,3 hPa 0,0 l/m 0 min 0 min 0 W/m 3,2 km/h (1 Bft) 95,74 %
06.09.2023 00:26 22,1 C 20,6 C 17,2 C 74 % 1019,3 hPa 0,0 l/m 0 min 0 min 0 W/m 3,2 km/h (1 Bft) 95,74 %
06.09.2023 00:28 22,0 C 20,6 C 17,2 C 74 % 1019,3 hPa 0,0 l/m 0 min 0 min 0 W/m 3,2 km/h (1 Bft) 97,87 %
06.09.2023 00:30 22,0 C 20,6 C 17,2 C 74 % 1019,3 hPa 0,0 l/m 0 min 0 min 0 W/m 6,4 km/h (2 Bft) 97,87 %
06.09.2023 00:32 21,9 C 20,6 C 16,7 C 74 % 1019,4 hPa 0,0 l/m 0 min 0 min 0 W/m 3,2 km/h (1 Bft) 95,65 %
06.09.2023 00:34 21,9 C 20,6 C 16,7 C 74 % 1019,4 hPa 0,0 l/m 0 min 0 min 0 W/m 3,2 km/h (1 Bft) 93,62 %
06.09.2023 00:36 21,9 C 20,6 C 16,7 C 74 % 1019,4 hPa 0,0 l/m 0 min 0 min 0 W/m 0,0 km/h (0 Bft) 94,29 %
06.09.2023 00:38 21,8 C 20,6 C 16,7 C 74 % 1019,4 hPa 0,0 l/m 0 min 0 min 0 W/m 3,2 km/h (1 Bft) 95,74 %
06.09.2023 00:40 21,8 C 20,0 C 16,7 C 75 % 1019,4 hPa 0,0 l/m 0 min 0 min 0 W/m 6,4 km/h (2 Bft) 96,61 %
06.09.2023 00:42 21,8 C 20,0 C 16,7 C 75 % 1019,4 hPa 0,0 l/m 0 min 0 min 0 W/m 3,2 km/h (1 Bft) 94,29 %
06.09.2023 00:44 21,7 C 20,0 C 16,7 C 75 % 1019,4 hPa 0,0 l/m 0 min 0 min 0 W/m 0,0 km/h (0 Bft) 96,61 %
06.09.2023 00:46 21,7 C 20,0 C 16,7 C 75 % 1019,4 hPa 0,0 l/m 0 min 0 min 0 W/m 0,0 km/h (0 Bft) 93,48 %
06.09.2023 00:48 21,6 C 20,0 C 16,7 C 75 % 1019,4 hPa 0,0 l/m 0 min 0 min 0 W/m 0,0 km/h (0 Bft) 97,22 %
06.09.2023 00:50 21,6 C 20,0 C 16,7 C 75 % 1019,4 hPa 0,0 l/m 0 min 0 min 0 W/m 0,0 km/h (0 Bft) 95,65 %
06.09.2023 00:52 21,6 C 20,0 C 16,7 C 75 % 1019,4 hPa 0,0 l/m 0 min 0 min 0 W/m 0,0 km/h (0 Bft) 94,92 %
06.09.2023 00:54 21,4 C 20,0 C 16,7 C 75 % 1019,4 hPa 0,0 l/m 0 min 0 min 0 W/m 0,0 km/h (0 Bft) 97,14 %
06.09.2023 00:56 21,4 C 20,0 C 16,7 C 75 % 1019,4 hPa 0,0 l/m 0 min 0 min 0 W/m 3,2 km/h (1 Bft) 94,92 %
06.09.2023 00:58 21,4 C 20,0 C 16,7 C 75 % 1019,4 hPa 0,0 l/m 0 min 0 min 0 W/m 3,2 km/h (1 Bft) 94,29 %
06.09.2023 01:00 21,4 C 20,0 C 16,7 C 76 % 1019,4 hPa 0,0 l/m 0 min 0 min 0 W/m 3,2 km/h (1 Bft) 97,87 %
06.09.2023 01:02 21,3 C 20,0 C 16,7 C 76 % 1019,4 hPa 0,0 l/m 0 min 0 min 0 W/m 6,4 km/h (2 Bft) 97,83 %
06.09.2023 01:04 21,3 C 20,0 C 16,7 C 76 % 1019,5 hPa 0,0 l/m 0 min 0 min 0 W/m 3,2 km/h (1 Bft) 100,00 %
06.09.2023 01:06 21,2 C 20,0 C 16,7 C 76 % 1019,5 hPa 0,0 l/m 0 min 0 min 0 W/m 6,4 km/h (2 Bft) 96,67 %
06.09.2023 01:08 21,2 C 20,0 C 16,7 C 76 % 1019,5 hPa 0,0 l/m 0 min 0 min 0 W/m 3,2 km/h (1 Bft) 100,00 %
06.09.2023 01:10 21,2 C 20,0 C 16,7 C 76 % 1019,5 hPa 0,0 l/m 0 min 0 min 0 W/m 3,2 km/h (1 Bft) 100,00 %
06.09.2023 01:12 21,1 C 20,0 C 16,7 C 76 % 1019,5 hPa 0,0 l/m 0 min 0 min 0 W/m 6,4 km/h (2 Bft) 95,74 %
06.09.2023 01:14 21,1 C 20,0 C 16,7 C 76 % 1019,5 hPa 0,0 l/m 0 min 0 min 0 W/m 3,2 km/h (1 Bft) 100,00 %
06.09.2023 01:16 21,1 C 20,0 C 16,7 C 76 % 1019,5 hPa 0,0 l/m 0 min 0 min 0 W/m 3,2 km/h (1 Bft) 95,65 %
06.09.2023 01:18 21,1 C 20,0 C 16,7 C 76 % 1019,5 hPa 0,0 l/m 0 min 0 min 0 W/m 3,2 km/h (1 Bft) 100,00 %
06.09.2023 01:20 21,1 C 20,0 C 16,1 C 76 % 1019,5 hPa 0,0 l/m 0 min 0 min 0 W/m 3,2 km/h (1 Bft) 100,00 %
06.09.2023 01:22 21,0 C 20,0 C 16,1 C 76 % 1019,5 hPa 0,0 l/m 0 min 0 min 0 W/m 3,2 km/h (1 Bft) 100,00 %
06.09.2023 01:24 20,9 C 19,4 C 16,1 C 76 % 1019,5 hPa 0,0 l/m 0 min 0 min 0 W/m 3,2 km/h (1 Bft) 100,00 %
06.09.2023 01:26 20,9 C 19,4 C 16,1 C 76 % 1019,5 hPa 0,0 l/m 0 min 0 min 0 W/m 3,2 km/h (1 Bft) 97,87 %
06.09.2023 01:28 20,9 C 19,4 C 16,1 C 77 % 1019,5 hPa 0,0 l/m 0 min 0 min 0 W/m 3,2 km/h (1 Bft) 100,00 %
06.09.2023 01:30 20,9 C 19,4 C 16,1 C 77 % 1019,5 hPa 0,0 l/m 0 min 0 min 0 W/m 3,2 km/h (1 Bft) 100,00 %
06.09.2023 01:32 20,9 C 19,4 C 16,1 C 77 % 1019,6 hPa 0,0 l/m 0 min 0 min 0 W/m 3,2 km/h (1 Bft) 100,00 %
06.09.2023 01:34 20,8 C 19,4 C 16,1 C 77 % 1019,6 hPa 0,0 l/m 0 min 0 min 0 W/m 0,0 km/h (0 Bft) 100,00 %
06.09.2023 01:36 20,8 C 19,4 C 16,1 C 77 % 1019,6 hPa 0,0 l/m 0 min 0 min 0 W/m 3,2 km/h (1 Bft) 97,87 %
06.09.2023 01:38 20,8 C 19,4 C 16,1 C 77 % 1019,6 hPa 0,0 l/m 0 min 0 min 0 W/m 3,2 km/h (1 Bft) 100,00 %
06.09.2023 01:40 20,8 C 19,4 C 16,1 C 77 % 1019,6 hPa 0,0 l/m 0 min 0 min 0 W/m 3,2 km/h (1 Bft) 100,00 %
06.09.2023 01:42 20,7 C 19,4 C 16,1 C 77 % 1019,6 hPa 0,0 l/m 0 min 0 min 0 W/m 3,2 km/h (1 Bft) 97,83 %
06.09.2023 01:44 20,7 C 19,4 C 16,1 C 77 % 1019,6 hPa 0,0 l/m 0 min 0 min 0 W/m 3,2 km/h (1 Bft) 97,87 %
06.09.2023 01:46 20,7 C 19,4 C 16,1 C 77 % 1019,7 hPa 0,0 l/m 0 min 0 min 0 W/m 3,2 km/h (1 Bft) 100,00 %
06.09.2023 01:48 20,7 C 19,4 C 15,6 C 77 % 1019,7 hPa 0,0 l/m 0 min 0 min 0 W/m 0,0 km/h (0 Bft) 100,00 %
06.09.2023 01:50 20,6 C 19,4 C 15,6 C 77 % 1019,7 hPa 0,0 l/m 0 min 0 min 0 W/m 3,2 km/h (1 Bft) 97,87 %
06.09.2023 01:52 20,6 C 19,4 C 15,6 C 77 % 1019,7 hPa 0,0 l/m 0 min 0 min 0 W/m 0,0 km/h (0 Bft) 97,87 %
06.09.2023 01:54 20,6 C 19,4 C 15,6 C 77 % 1019,7 hPa 0,0 l/m 0 min 0 min 0 W/m 0,0 km/h (0 Bft) 95,65 %
06.09.2023 01:56 20,6 C 18,9 C 15,6 C 77 % 1019,7 hPa 0,0 l/m 0 min 0 min 0 W/m 3,2 km/h (1 Bft) 97,87 %
06.09.2023 01:58 20,6 C 18,9 C 15,6 C 77 % 1019,7 hPa 0,0 l/m 0 min 0 min 0 W/m 12,9 km/h (3 Bft) 97,87 %
06.09.2023 02:00 20,5 C 19,4 C 15,6 C 77 % 1019,8 hPa 0,0 l/m 0 min 0 min 0 W/m 0,0 km/h (0 Bft) 95,74 %
06.09.2023 02:02 20,5 C 19,4 C 15,6 C 77 % 1019,8 hPa 0,0 l/m 0 min 0 min 0 W/m 3,2 km/h (1 Bft) 97,87 %
06.09.2023 02:04 20,4 C 18,9 C 15,6 C 77 % 1019,8 hPa 0,0 l/m 0 min 0 min 0 W/m 0,0 km/h (0 Bft) 97,73 %
06.09.2023 02:06 20,4 C 18,9 C 15,6 C 78 % 1019,8 hPa 0,0 l/m 0 min 0 min 0 W/m 0,0 km/h (0 Bft) 98,31 %
06.09.2023 02:08 20,4 C 18,9 C 15,0 C 78 % 1019,8 hPa 0,0 l/m 0 min 0 min 0 W/m 0,0 km/h (0 Bft) 97,14 %
06.09.2023 02:10 20,4 C 18,9 C 15,0 C 78 % 1019,8 hPa 0,0 l/m 0 min 0 min 0 W/m 0,0 km/h (0 Bft) 97,87 %
06.09.2023 02:12 20,4 C 18,9 C 15,0 C 79 % 1019,8 hPa 0,0 l/m 0 min 0 min 0 W/m 0,0 km/h (0 Bft) 95,74 %
06.09.2023 02:14 20,3 C 18,3 C 15,0 C 79 % 1019,8 hPa 0,0 l/m 0 min 0 min 0 W/m 0,0 km/h (0 Bft) 97,87 %
06.09.2023 02:16 20,3 C 18,3 C 14,4 C 80 % 1019,9 hPa 0,0 l/m 0 min 0 min 0 W/m 0,0 km/h (0 Bft) 95,65 %
06.09.2023 02:18 20,3 C 18,3 C 14,4 C 80 % 1019,9 hPa 0,0 l/m 0 min 0 min 0 W/m 0,0 km/h (0 Bft) 97,87 %
06.09.2023 02:20 20,2 C 18,3 C 14,4 C 80 % 1019,9 hPa 0,0 l/m 0 min 0 min 0 W/m 0,0 km/h (0 Bft) 97,87 %
06.09.2023 02:22 20,2 C 17,8 C 14,4 C 80 % 1019,9 hPa 0,0 l/m 0 min 0 min 0 W/m 0,0 km/h (0 Bft) 95,74 %
06.09.2023 02:24 20,1 C 17,8 C 14,4 C 81 % 1019,9 hPa 0,0 l/m 0 min 0 min 0 W/m 0,0 km/h (0 Bft) 95,74 %
06.09.2023 02:26 20,1 C 17,8 C 14,4 C 81 % 1019,9 hPa 0,0 l/m 0 min 0 min 0 W/m 0,0 km/h (0 Bft) 93,48 %
06.09.2023 02:28 20,1 C 17,8 C 14,4 C 81 % 1019,9 hPa 0,0 l/m 0 min 0 min 0 W/m 0,0 km/h (0 Bft) 95,74 %
06.09.2023 02:30 20,0 C 17,8 C 13,9 C 81 % 1019,8 hPa 0,0 l/m 0 min 0 min 0 W/m 0,0 km/h (0 Bft) 95,74 %
06.09.2023 02:32 19,9 C 17,8 C 13,9 C 81 % 1019,8 hPa 0,0 l/m 0 min 0 min 0 W/m 0,0 km/h (0 Bft) 95,74 %
06.09.2023 02:34 19,9 C 17,8 C 13,9 C 81 % 1019,9 hPa 0,0 l/m 0 min 0 min 0 W/m 0,0 km/h (0 Bft) 97,87 %
06.09.2023 02:36 19,8 C 17,2 C 13,9 C 82 % 1019,8 hPa 0,0 l/m 0 min 0 min 0 W/m 0,0 km/h (0 Bft) 97,87 %
06.09.2023 02:38 19,7 C 17,2 C 13,9 C 82 % 1019,8 hPa 0,0 l/m 0 min 0 min 0 W/m 0,0 km/h (0 Bft) 97,83 %
06.09.2023 02:40 19,7 C 17,2 C 13,9 C 82 % 1019,8 hPa 0,0 l/m 0 min 0 min 0 W/m 0,0 km/h (0 Bft) 95,74 %
06.09.2023 02:42 19,6 C 17,2 C 13,9 C 83 % 1019,8 hPa 0,0 l/m 0 min 0 min 0 W/m 0,0 km/h (0 Bft) 97,87 %
06.09.2023 02:44 19,6 C 17,2 C 13,9 C 83 % 1019,8 hPa 0,0 l/m 0 min 0 min 0 W/m 0,0 km/h (0 Bft) 97,87 %
06.09.2023 02:46 19,4 C 17,2 C 13,9 C 83 % 1019,8 hPa 0,0 l/m 0 min 0 min 0 W/m 0,0 km/h (0 Bft) 97,87 %
06.09.2023 02:48 19,3 C 17,2 C 13,9 C 83 % 1019,8 hPa 0,0 l/m 0 min 0 min 0 W/m 0,0 km/h (0 Bft) 97,87 %
06.09.2023 02:50 19,3 C 17,2 C 13,9 C 83 % 1019,8 hPa 0,0 l/m 0 min 0 min 0 W/m 0,0 km/h (0 Bft) 95,65 %
06.09.2023 02:52 19,2 C 17,2 C 13,9 C 83 % 1019,8 hPa 0,0 l/m 0 min 0 min 0 W/m 0,0 km/h (0 Bft) 100,00 %
06.09.2023 02:54 19,2 C 17,2 C 13,9 C 84 % 1019,8 hPa 0,0 l/m 0 min 0 min 0 W/m 0,0 km/h (0 Bft) 100,00 %
06.09.2023 02:56 19,1 C 17,2 C 13,3 C 84 % 1019,8 hPa 0,0 l/m 0 min 0 min 0 W/m 3,2 km/h (1 Bft) 100,00 %
06.09.2023 02:58 19,1 C 17,2 C 13,3 C 84 % 1019,8 hPa 0,0 l/m 0 min 0 min 0 W/m 0,0 km/h (0 Bft) 100,00 %
06.09.2023 03:00 19,1 C 17,2 C 13,9 C 84 % 1019,8 hPa 0,0 l/m 0 min 0 min 0 W/m 0,0 km/h (0 Bft) 100,00 %
06.09.2023 03:02 18,9 C 17,2 C 13,9 C 84 % 1019,8 hPa 0,0 l/m 0 min 0 min 0 W/m 0,0 km/h (0 Bft) 100,00 %
06.09.2023 03:04 18,9 C 17,2 C 13,9 C 84 % 1019,8 hPa 0,0 l/m 0 min 0 min 0 W/m 0,0 km/h (0 Bft) 100,00 %
06.09.2023 03:06 18,8 C 17,2 C 13,9 C 84 % 1019,8 hPa 0,0 l/m 0 min 0 min 0 W/m 3,2 km/h (1 Bft) 100,00 %
06.09.2023 03:08 18,8 C 17,2 C 13,9 C 84 % 1019,8 hPa 0,0 l/m 0 min 0 min 0 W/m 3,2 km/h (1 Bft) 97,14 %
06.09.2023 03:10 18,8 C 17,8 C 13,9 C 84 % 1019,8 hPa 0,0 l/m 0 min 0 min 0 W/m 0,0 km/h (0 Bft) 100,00 %
06.09.2023 03:12 18,8 C 17,8 C 13,9 C 84 % 1019,8 hPa 0,0 l/m 0 min 0 min 0 W/m 3,2 km/h (1 Bft) 97,87 %
06.09.2023 03:14 18,7 C 17,8 C 13,9 C 84 % 1019,8 hPa 0,0 l/m 0 min 0 min 0 W/m 3,2 km/h (1 Bft) 97,83 %
06.09.2023 03:16 18,7 C 17,8 C 13,9 C 84 % 1019,8 hPa 0,0 l/m 0 min 0 min 0 W/m 6,4 km/h (2 Bft) 97,87 %
06.09.2023 03:18 18,7 C 17,8 C 13,9 C 84 % 1019,8 hPa 0,0 l/m 0 min 0 min 0 W/m 6,4 km/h (2 Bft) 95,74 %
06.09.2023 03:20 18,7 C 17,8 C 14,4 C 84 % 1019,8 hPa 0,0 l/m 0 min 0 min 0 W/m 6,4 km/h (2 Bft) 97,87 %
06.09.2023 03:22 18,6 C 17,8 C 14,4 C 84 % 1019,7 hPa 0,0 l/m 0 min 0 min 0 W/m 3,2 km/h (1 Bft) 97,87 %
06.09.2023 03:24 18,6 C 17,8 C 14,4 C 84 % 1019,7 hPa 0,0 l/m 0 min 0 min 0 W/m 3,2 km/h (1 Bft) 95,74 %
06.09.2023 03:26 18,6 C 18,3 C 14,4 C 84 % 1019,7 hPa 0,0 l/m 0 min 0 min 0 W/m 12,9 km/h (3 Bft) 97,87 %
06.09.2023 03:28 18,6 C 18,3 C 14,4 C 84 % 1019,7 hPa 0,0 l/m 0 min 0 min 0 W/m 3,2 km/h (1 Bft) 97,83 %
06.09.2023 03:30 18,6 C 17,8 C 14,4 C 84 % 1019,7 hPa 0,0 l/m 0 min 0 min 0 W/m 3,2 km/h (1 Bft) 97,87 %
06.09.2023 03:32 18,6 C 17,8 C 14,4 C 84 % 1019,7 hPa 0,0 l/m 0 min 0 min 0 W/m 0,0 km/h (0 Bft) 97,87 %
06.09.2023 03:34 18,7 C 17,8 C 14,4 C 84 % 1019,7 hPa 0,0 l/m 0 min 0 min 0 W/m 0,0 km/h (0 Bft) 97,87 %
06.09.2023 03:36 18,6 C 17,8 C 14,4 C 84 % 1019,7 hPa 0,0 l/m 0 min 0 min 0 W/m 3,2 km/h (1 Bft) 97,87 %
06.09.2023 03:38 18,6 C 17,8 C 14,4 C 84 % 1019,7 hPa 0,0 l/m 0 min 0 min 0 W/m 3,2 km/h (1 Bft) 97,87 %
06.09.2023 03:40 18,6 C 17,8 C 14,4 C 84 % 1019,7 hPa 0,0 l/m 0 min 0 min 0 W/m 3,2 km/h (1 Bft) 97,83 %
06.09.2023 03:42 18,6 C 17,8 C 14,4 C 84 % 1019,8 hPa 0,0 l/m 0 min 0 min 0 W/m 3,2 km/h (1 Bft) 95,74 %
06.09.2023 03:44 18,6 C 17,8 C 14,4 C 84 % 1019,8 hPa 0,0 l/m 0 min 0 min 0 W/m 3,2 km/h (1 Bft) 97,87 %
06.09.2023 03:46 18,6 C 17,8 C 14,4 C 84 % 1019,8 hPa 0,0 l/m 0 min 0 min 0 W/m 0,0 km/h (0 Bft) 95,74 %
06.09.2023 03:48 18,6 C 17,8 C 14,4 C 84 % 1019,7 hPa 0,0 l/m 0 min 0 min 0 W/m 0,0 km/h (0 Bft) 97,87 %
06.09.2023 03:50 18,6 C 17,8 C 13,9 C 84 % 1019,8 hPa 0,0 l/m 0 min 0 min 0 W/m 3,2 km/h (1 Bft) 95,74 %
06.09.2023 03:52 18,6 C 17,2 C 13,9 C 84 % 1019,8 hPa 0,0 l/m 0 min 0 min 0 W/m 0,0 km/h (0 Bft) 93,48 %
06.09.2023 03:54 18,6 C 17,2 C 13,9 C 84 % 1019,8 hPa 0,0 l/m 0 min 0 min 0 W/m 0,0 km/h (0 Bft) 95,74 %
06.09.2023 03:56 18,6 C 17,2 C 13,9 C 84 % 1019,8 hPa 0,0 l/m 0 min 0 min 0 W/m 0,0 km/h (0 Bft) 97,87 %
06.09.2023 03:58 18,6 C 17,2 C 13,9 C 84 % 1019,8 hPa 0,0 l/m 0 min 0 min 0 W/m 0,0 km/h (0 Bft) 95,74 %
06.09.2023 04:00 18,6 C 17,2 C 13,9 C 84 % 1019,9 hPa 0,0 l/m 0 min 0 min 0 W/m 0,0 km/h (0 Bft) 97,87 %
06.09.2023 04:02 18,6 C 17,2 C 13,9 C 85 % 1019,9 hPa 0,0 l/m 0 min 0 min 0 W/m 0,0 km/h (0 Bft) 90,91 %
06.09.2023 04:07 18,4 C 16,7 C 13,3 C 85 % 1019,9 hPa 0,0 l/m 0 min 0 min 0 W/m 0,0 km/h (0 Bft) 100,00 %
06.09.2023 04:08 18,4 C 16,7 C 13,3 C 85 % 1019,9 hPa 0,0 l/m 0 min 0 min 0 W/m 0,0 km/h (0 Bft) 95,83 %
06.09.2023 04:10 18,4 C 16,7 C 13,3 C 85 % 1019,9 hPa 0,0 l/m 0 min 0 min 0 W/m 0,0 km/h (0 Bft) 95,74 %
06.09.2023 04:12 18,3 C 16,7 C 13,3 C 85 % 1019,9 hPa 0,0 l/m 0 min 0 min 0 W/m 0,0 km/h (0 Bft) 97,83 %
06.09.2023 04:14 18,3 C 16,1 C 13,3 C 85 % 1019,9 hPa 0,0 l/m 0 min 0 min 0 W/m 0,0 km/h (0 Bft) 97,87 %
06.09.2023 04:16 18,3 C 16,1 C 12,8 C 85 % 1019,9 hPa 0,0 l/m 0 min 0 min 0 W/m 0,0 km/h (0 Bft) 93,62 %
06.09.2023 04:18 18,2 C 16,1 C 12,8 C 85 % 1019,9 hPa 0,0 l/m 0 min 0 min 0 W/m 0,0 km/h (0 Bft) 93,62 %
06.09.2023 04:20 18,1 C 16,1 C 12,8 C 86 % 1019,9 hPa 0,0 l/m 0 min 0 min 0 W/m 0,0 km/h (0 Bft) 95,74 %
06.09.2023 04:22 18,1 C 16,1 C 12,8 C 86 % 1019,9 hPa 0,0 l/m 0 min 0 min 0 W/m 0,0 km/h (0 Bft) 95,74 %
06.09.2023 04:24 18,1 C 16,1 C 12,8 C 86 % 1019,9 hPa 0,0 l/m 0 min 0 min 0 W/m 0,0 km/h (0 Bft) 93,48 %
06.09.2023 04:26 18,0 C 16,1 C 12,8 C 86 % 1019,9 hPa 0,0 l/m 0 min 0 min 0 W/m 0,0 km/h (0 Bft) 93,62 %
06.09.2023 04:28 17,9 C 16,1 C 12,8 C 86 % 1019,9 hPa 0,0 l/m 0 min 0 min 0 W/m 0,0 km/h (0 Bft) 93,62 %
06.09.2023 04:30 17,9 C 16,1 C 12,8 C 86 % 1019,8 hPa 0,0 l/m 0 min 0 min 0 W/m 0,0 km/h (0 Bft) 93,62 %
06.09.2023 04:32 17,9 C 16,1 C 12,8 C 86 % 1019,8 hPa 0,0 l/m 0 min 0 min 0 W/m 0,0 km/h (0 Bft) 95,74 %
06.09.2023 04:34 17,8 C 16,1 C 12,8 C 86 % 1019,8 hPa 0,0 l/m 0 min 0 min 0 W/m 0,0 km/h (0 Bft) 95,74 %
06.09.2023 04:36 17,8 C 16,7 C 12,8 C 86 % 1019,8 hPa 0,0 l/m 0 min 0 min 0 W/m 0,0 km/h (0 Bft) 97,87 %
06.09.2023 04:38 17,8 C 16,7 C 12,8 C 87 % 1019,7 hPa 0,0 l/m 0 min 0 min 0 W/m 3,2 km/h (1 Bft) 97,83 %
06.09.2023 04:40 17,8 C 16,7 C 12,8 C 87 % 1019,7 hPa 0,0 l/m 0 min 0 min 0 W/m 3,2 km/h (1 Bft) 95,74 %
06.09.2023 04:42 17,8 C 16,7 C 13,3 C 87 % 1019,7 hPa 0,0 l/m 0 min 0 min 0 W/m 3,2 km/h (1 Bft) 97,87 %
06.09.2023 04:44 17,7 C 16,7 C 13,3 C 87 % 1019,7 hPa 0,0 l/m 0 min 0 min 0 W/m 3,2 km/h (1 Bft) 97,87 %
06.09.2023 04:46 17,7 C 16,7 C 13,3 C 87 % 1019,7 hPa 0,0 l/m 0 min 0 min 0 W/m 3,2 km/h (1 Bft) 97,87 %
06.09.2023 04:48 17,7 C 16,7 C 13,3 C 87 % 1019,8 hPa 0,0 l/m 0 min 0 min 0 W/m 3,2 km/h (1 Bft) 97,87 %
06.09.2023 04:50 17,7 C 16,7 C 13,3 C 87 % 1019,7 hPa 0,0 l/m 0 min 0 min 0 W/m 3,2 km/h (1 Bft) 97,83 %
06.09.2023 04:52 17,7 C 16,7 C 13,3 C 87 % 1019,7 hPa 0,0 l/m 0 min 0 min 0 W/m 3,2 km/h (1 Bft) 95,74 %
06.09.2023 04:54 17,6 C 16,7 C 13,3 C 87 % 1019,7 hPa 0,0 l/m 0 min 0 min 0 W/m 3,2 km/h (1 Bft) 97,87 %
06.09.2023 04:56 17,6 C 16,7 C 13,3 C 87 % 1019,7 hPa 0,0 l/m 0 min 0 min 0 W/m 3,2 km/h (1 Bft) 97,87 %
06.09.2023 04:58 17,6 C 16,7 C 13,9 C 87 % 1019,7 hPa 0,0 l/m 0 min 0 min 0 W/m 3,2 km/h (1 Bft) 95,74 %
06.09.2023 05:00 17,6 C 16,7 C 13,3 C 87 % 1019,7 hPa 0,0 l/m 0 min 0 min 0 W/m 3,2 km/h (1 Bft) 95,74 %
06.09.2023 05:02 17,6 C 16,7 C 13,3 C 87 % 1019,7 hPa 0,0 l/m 0 min 0 min 0 W/m 3,2 km/h (1 Bft) 95,65 %
06.09.2023 05:04 17,6 C 16,7 C 13,3 C 87 % 1019,7 hPa 0,0 l/m 0 min 0 min 0 W/m 3,2 km/h (1 Bft) 97,67 %
06.09.2023 05:06 17,6 C 16,7 C 13,3 C 87 % 1019,7 hPa 0,0 l/m 0 min 0 min 0 W/m 3,2 km/h (1 Bft) 100,00 %
06.09.2023 05:08 17,6 C 16,7 C 13,3 C 87 % 1019,7 hPa 0,0 l/m 0 min 0 min 0 W/m 3,2 km/h (1 Bft) 100,00 %
06.09.2023 05:10 17,6 C 16,7 C 13,3 C 87 % 1019,7 hPa 0,0 l/m 0 min 0 min 0 W/m 3,2 km/h (1 Bft) 100,00 %
06.09.2023 05:12 17,6 C 16,7 C 13,3 C 87 % 1019,8 hPa 0,0 l/m 0 min 0 min 0 W/m 3,2 km/h (1 Bft) 97,83 %
06.09.2023 05:14 17,6 C 16,7 C 13,3 C 87 % 1019,8 hPa 0,0 l/m 0 min 0 min 0 W/m 3,2 km/h (1 Bft) 100,00 %
06.09.2023 05:16 17,6 C 16,7 C 13,3 C 87 % 1019,7 hPa 0,0 l/m 0 min 0 min 0 W/m 3,2 km/h (1 Bft) 100,00 %
06.09.2023 05:18 17,6 C 16,7 C 13,3 C 87 % 1019,8 hPa 0,0 l/m 0 min 0 min 0 W/m 3,2 km/h (1 Bft) 100,00 %
06.09.2023 05:20 17,6 C 16,7 C 13,3 C 87 % 1019,8 hPa 0,0 l/m 0 min 0 min 0 W/m 6,4 km/h (2 Bft) 100,00 %
06.09.2023 05:22 17,6 C 16,7 C 13,3 C 87 % 1019,7 hPa 0,0 l/m 0 min 0 min 0 W/m 0,0 km/h (0 Bft) 100,00 %
06.09.2023 05:24 17,6 C 16,7 C 13,3 C 87 % 1019,7 hPa 0,0 l/m 0 min 0 min 0 W/m 0,0 km/h (0 Bft) 100,00 %
06.09.2023 05:26 17,6 C 16,7 C 13,3 C 87 % 1019,7 hPa 0,0 l/m 0 min 0 min 0 W/m 0,0 km/h (0 Bft) 97,83 %
06.09.2023 05:28 17,6 C 16,7 C 13,3 C 87 % 1019,7 hPa 0,0 l/m 0 min 0 min 0 W/m 0,0 km/h (0 Bft) 100,00 %
06.09.2023 05:30 17,5 C 16,7 C 13,3 C 87 % 1019,7 hPa 0,0 l/m 0 min 0 min 0 W/m 0,0 km/h (0 Bft) 100,00 %
06.09.2023 05:32 17,5 C 16,7 C 13,3 C 87 % 1019,8 hPa 0,0 l/m 0 min 0 min 0 W/m 0,0 km/h (0 Bft) 100,00 %
06.09.2023 05:34 17,5 C 16,7 C 13,3 C 87 % 1019,7 hPa 0,0 l/m 0 min 0 min 0 W/m 0,0 km/h (0 Bft) 100,00 %
06.09.2023 05:36 17,6 C 16,7 C 13,3 C 87 % 1019,7 hPa 0,0 l/m 0 min 0 min 0 W/m 0,0 km/h (0 Bft) 100,00 %
06.09.2023 05:38 17,6 C 16,7 C 13,3 C 87 % 1019,8 hPa 0,0 l/m 0 min 0 min 0 W/m 0,0 km/h (0 Bft) 97,83 %
06.09.2023 05:40 17,6 C 16,7 C 13,3 C 87 % 1019,7 hPa 0,0 l/m 0 min 0 min 0 W/m 0,0 km/h (0 Bft) 97,87 %
06.09.2023 05:42 17,6 C 16,7 C 13,3 C 87 % 1019,8 hPa 0,0 l/m 0 min 0 min 0 W/m 0,0 km/h (0 Bft) 97,87 %
06.09.2023 05:44 17,6 C 16,7 C 13,3 C 87 % 1019,8 hPa 0,0 l/m 0 min 0 min 0 W/m 0,0 km/h (0 Bft) 100,00 %
06.09.2023 05:46 17,6 C 16,7 C 13,3 C 87 % 1019,8 hPa 0,0 l/m 0 min 0 min 0 W/m 0,0 km/h (0 Bft) 100,00 %
06.09.2023 05:48 17,5 C 16,7 C 13,3 C 87 % 1019,7 hPa 0,0 l/m 0 min 0 min 0 W/m 0,0 km/h (0 Bft) 97,87 %
06.09.2023 05:50 17,6 C 16,7 C 13,3 C 87 % 1019,8 hPa 0,0 l/m 0 min 0 min 0 W/m 0,0 km/h (0 Bft) 100,00 %
06.09.2023 05:52 17,6 C 16,7 C 13,3 C 87 % 1019,8 hPa 0,0 l/m 0 min 0 min 0 W/m 0,0 km/h (0 Bft) 95,65 %
06.09.2023 05:54 17,6 C 16,7 C 13,3 C 87 % 1019,8 hPa 0,0 l/m 0 min 0 min 0 W/m 0,0 km/h (0 Bft) 97,87 %
06.09.2023 05:56 17,6 C 16,7 C 13,3 C 87 % 1019,8 hPa 0,0 l/m 0 min 0 min 0 W/m 0,0 km/h (0 Bft) 97,87 %
06.09.2023 05:58 17,6 C 16,7 C 13,3 C 87 % 1019,8 hPa 0,0 l/m 0 min 0 min 0 W/m 0,0 km/h (0 Bft) 97,87 %
06.09.2023 06:00 17,6 C 16,7 C 13,3 C 87 % 1019,8 hPa 0,0 l/m 0 min 0 min 0 W/m 0,0 km/h (0 Bft) 97,87 %
06.09.2023 06:02 17,6 C 16,7 C 13,3 C 87 % 1019,8 hPa 0,0 l/m 0 min 0 min 0 W/m 0,0 km/h (0 Bft) 97,87 %
06.09.2023 06:04 17,6 C 16,7 C 13,3 C 87 % 1019,8 hPa 0,0 l/m 0 min 0 min 0 W/m 0,0 km/h (0 Bft) 94,00 %
06.09.2023 06:08 17,5 C 16,7 C 13,3 C 87 % 1019,8 hPa 0,0 l/m 0 min 0 min 0 W/m 0,0 km/h (0 Bft) 97,80 %
06.09.2023 06:10 17,5 C 16,7 C 13,3 C 87 % 1019,8 hPa 0,0 l/m 0 min 0 min 0 W/m 3,2 km/h (1 Bft) 97,87 %
06.09.2023 06:12 17,5 C 16,7 C 13,3 C 87 % 1019,8 hPa 0,0 l/m 0 min 0 min 0 W/m 3,2 km/h (1 Bft) 95,74 %
06.09.2023 06:16 17,6 C 16,7 C 13,3 C 87 % 1019,9 hPa 0,0 l/m 0 min 0 min 0 W/m 3,2 km/h (1 Bft) 97,87 %
06.09.2023 06:18 17,6 C 16,7 C 13,3 C 87 % 1019,9 hPa 0,0 l/m 0 min 0 min 0 W/m 3,2 km/h (1 Bft) 93,62 %
06.09.2023 06:20 17,6 C 16,7 C 13,3 C 87 % 1019,9 hPa 0,0 l/m 0 min 0 min 0 W/m 3,2 km/h (1 Bft) 97,83 %
06.09.2023 06:22 17,5 C 16,7 C 13,3 C 87 % 1019,9 hPa 0,0 l/m 0 min 0 min 0 W/m 0,0 km/h (0 Bft) 100,00 %
06.09.2023 06:24 17,6 C 16,7 C 13,3 C 87 % 1019,9 hPa 0,0 l/m 0 min 0 min 0 W/m 3,2 km/h (1 Bft) 100,00 %
06.09.2023 06:26 17,6 C 16,7 C 13,3 C 87 % 1020,0 hPa 0,0 l/m 0 min 0 min 0 W/m 3,2 km/h (1 Bft) 97,87 %
06.09.2023 06:28 17,5 C 16,7 C 13,3 C 87 % 1019,9 hPa 0,0 l/m 0 min 0 min 0 W/m 0,0 km/h (0 Bft) 97,87 %
06.09.2023 06:30 17,5 C 16,7 C 13,3 C 87 % 1020,0 hPa 0,0 l/m 0 min 0 min 0 W/m 3,2 km/h (1 Bft) 95,74 %
06.09.2023 06:32 17,5 C 16,7 C 13,3 C 87 % 1019,9 hPa 0,0 l/m 0 min 0 min 0 W/m 0,0 km/h (0 Bft) 97,83 %
06.09.2023 06:34 17,5 C 16,7 C 12,8 C 87 % 1020,0 hPa 0,0 l/m 0 min 0 min 0 W/m 0,0 km/h (0 Bft) 97,87 %
06.09.2023 06:36 17,5 C 16,7 C 13,3 C 87 % 1020,1 hPa 0,0 l/m 0 min 0 min 0 W/m 3,2 km/h (1 Bft) 95,74 %
06.09.2023 06:38 17,5 C 16,7 C 12,8 C 87 % 1020,1 hPa 0,0 l/m 0 min 0 min 0 W/m 0,0 km/h (0 Bft) 97,87 %
06.09.2023 06:40 17,5 C 16,1 C 12,8 C 87 % 1020,2 hPa 0,0 l/m 0 min 0 min 0 W/m 0,0 km/h (0 Bft) 91,49 %
06.09.2023 06:42 17,4 C 16,1 C 12,8 C 87 % 1020,1 hPa 0,0 l/m 0 min 0 min 0 W/m 3,2 km/h (1 Bft) 93,62 %
06.09.2023 06:44 17,4 C 16,1 C 12,8 C 87 % 1020,2 hPa 0,0 l/m 0 min 0 min 0 W/m 0,0 km/h (0 Bft) 93,62 %
06.09.2023 06:46 17,4 C 16,1 C 12,8 C 87 % 1020,3 hPa 0,0 l/m 0 min 0 min 0 W/m 0,0 km/h (0 Bft) 95,65 %
06.09.2023 06:48 17,4 C 16,1 C 12,8 C 87 % 1020,3 hPa 0,0 l/m 0 min 0 min 0 W/m 0,0 km/h (0 Bft) 95,74 %
06.09.2023 06:50 17,4 C 16,1 C 12,8 C 87 % 1020,3 hPa 0,0 l/m 0 min 0 min 0 W/m 0,0 km/h (0 Bft) 95,74 %
06.09.2023 06:52 17,3 C 15,6 C 12,8 C 88 % 1020,3 hPa 0,0 l/m 0 min 0 min 0 W/m 0,0 km/h (0 Bft) 93,62 %
06.09.2023 06:54 17,3 C 15,6 C 12,2 C 88 % 1020,2 hPa 0,0 l/m 0 min 0 min 0 W/m 0,0 km/h (0 Bft) 93,62 %
06.09.2023 06:56 17,3 C 15,6 C 12,2 C 87 % 1020,3 hPa 0,0 l/m 0 min 0 min 0 W/m 0,0 km/h (0 Bft) 93,62 %
06.09.2023 07:00 17,3 C 15,6 C 12,2 C 88 % 1020,3 hPa 0,0 l/m 0 min 0 min 3 W/m 0,0 km/h (0 Bft) 95,74 %
06.09.2023 07:02 17,2 C 15,6 C 12,2 C 88 % 1020,4 hPa 0,0 l/m 0 min 0 min 5 W/m 0,0 km/h (0 Bft) 95,74 %
06.09.2023 07:04 17,2 C 15,6 C 12,2 C 88 % 1020,3 hPa 0,0 l/m 0 min 0 min 5 W/m 0,0 km/h (0 Bft) 98,00 %
06.09.2023 07:06 17,1 C 15,0 C 12,2 C 88 % 1020,4 hPa 0,0 l/m 0 min 0 min 6 W/m 0,0 km/h (0 Bft) 95,92 %
06.09.2023 07:08 17,1 C 15,0 C 12,2 C 88 % 1020,4 hPa 0,0 l/m 0 min 0 min 7 W/m 0,0 km/h (0 Bft) 93,62 %
06.09.2023 07:10 17,1 C 15,0 C 12,2 C 88 % 1020,4 hPa 0,0 l/m 0 min 0 min 7 W/m 0,0 km/h (0 Bft) 93,48 %
06.09.2023 07:12 17,0 C 15,0 C 11,7 C 89 % 1020,4 hPa 0,0 l/m 0 min 0 min 7 W/m 0,0 km/h (0 Bft) 93,62 %
06.09.2023 07:14 16,9 C 15,0 C 11,7 C 88 % 1020,4 hPa 0,0 l/m 0 min 0 min 9 W/m 0,0 km/h (0 Bft) 95,74 %
06.09.2023 07:16 16,9 C 15,0 C 11,7 C 89 % 1020,4 hPa 0,0 l/m 0 min 0 min 9 W/m 0,0 km/h (0 Bft) 93,62 %
06.09.2023 07:18 16,9 C 15,0 C 11,7 C 89 % 1020,5 hPa 0,0 l/m 0 min 0 min 9 W/m 0,0 km/h (0 Bft) 95,74 %
06.09.2023 07:20 16,8 C 15,0 C 11,7 C 89 % 1020,5 hPa 0,0 l/m 0 min 0 min 11 W/m 0,0 km/h (0 Bft) 100,00 %
06.09.2023 07:22 16,8 C 15,0 C 11,7 C 89 % 1020,5 hPa 0,0 l/m 0 min 0 min 11 W/m 0,0 km/h (0 Bft) 95,74 %
06.09.2023 07:24 16,8 C 15,0 C 11,7 C 89 % 1020,5 hPa 0,0 l/m 0 min 0 min 11 W/m 0,0 km/h (0 Bft) 97,83 %
06.09.2023 07:26 16,8 C 15,0 C 11,7 C 89 % 1020,5 hPa 0,0 l/m 0 min 0 min 11 W/m 0,0 km/h (0 Bft) 100,00 %
06.09.2023 07:28 16,7 C 15,0 C 11,7 C 90 % 1020,5 hPa 0,0 l/m 0 min 0 min 12 W/m 0,0 km/h (0 Bft) 100,00 %
06.09.2023 07:30 16,7 C 15,0 C 11,7 C 89 % 1020,4 hPa 0,0 l/m 0 min 0 min 12 W/m 0,0 km/h (0 Bft) 100,00 %
06.09.2023 07:32 16,6 C 15,0 C 11,7 C 90 % 1020,5 hPa 0,0 l/m 0 min 0 min 12 W/m 0,0 km/h (0 Bft) 97,87 %
06.09.2023 07:34 16,6 C 15,0 C 11,7 C 90 % 1020,5 hPa 0,0 l/m 0 min 0 min 12 W/m 0,0 km/h (0 Bft) 100,00 %
06.09.2023 07:36 16,6 C 15,0 C 11,7 C 90 % 1020,5 hPa 0,0 l/m 0 min 0 min 12 W/m 0,0 km/h (0 Bft) 97,87 %
06.09.2023 07:38 16,6 C 15,0 C 11,7 C 90 % 1020,5 hPa 0,0 l/m 0 min 0 min 14 W/m 0,0 km/h (0 Bft) 93,48 %
06.09.2023 07:40 16,6 C 15,0 C 11,7 C 90 % 1020,5 hPa 0,0 l/m 0 min 0 min 14 W/m 0,0 km/h (0 Bft) 97,87 %
06.09.2023 07:42 16,5 C 15,0 C 11,7 C 90 % 1020,5 hPa 0,0 l/m 0 min 0 min 14 W/m 0,0 km/h (0 Bft) 97,87 %
06.09.2023 07:44 16,5 C 15,0 C 11,7 C 90 % 1020,5 hPa 0,0 l/m 0 min 0 min 14 W/m 0,0 km/h (0 Bft) 95,74 %
06.09.2023 07:46 16,5 C 15,0 C 11,7 C 91 % 1020,5 hPa 0,0 l/m 0 min 0 min 14 W/m 0,0 km/h (0 Bft) 97,87 %
06.09.2023 07:48 16,4 C 15,0 C 11,7 C 91 % 1020,5 hPa 0,0 l/m 0 min 0 min 15 W/m 0,0 km/h (0 Bft) 97,87 %
06.09.2023 07:50 16,4 C 15,0 C 11,7 C 91 % 1020,5 hPa 0,0 l/m 0 min 0 min 16 W/m 0,0 km/h (0 Bft) 97,87 %
06.09.2023 07:52 16,4 C 15,0 C 11,7 C 91 % 1020,5 hPa 0,0 l/m 0 min 0 min 16 W/m 0,0 km/h (0 Bft) 97,83 %
06.09.2023 07:54 16,4 C 15,0 C 11,7 C 91 % 1020,5 hPa 0,0 l/m 0 min 0 min 16 W/m 0,0 km/h (0 Bft) 97,87 %
06.09.2023 07:56 16,4 C 15,6 C 11,7 C 91 % 1020,5 hPa 0,0 l/m 0 min 0 min 16 W/m 0,0 km/h (0 Bft) 97,87 %
06.09.2023 07:58 16,3 C 15,6 C 12,2 C 91 % 1020,6 hPa 0,0 l/m 0 min 0 min 17 W/m 0,0 km/h (0 Bft) 97,87 %
06.09.2023 08:00 16,3 C 15,6 C 12,2 C 91 % 1020,6 hPa 0,0 l/m 0 min 0 min 18 W/m 0,0 km/h (0 Bft) 97,87 %
06.09.2023 08:02 16,3 C 15,6 C 12,2 C 91 % 1020,5 hPa 0,0 l/m 0 min 0 min 18 W/m 0,0 km/h (0 Bft) 97,87 %
06.09.2023 08:04 16,3 C 15,6 C 12,2 C 91 % 1020,6 hPa 0,0 l/m 0 min 0 min 18 W/m 0,0 km/h (0 Bft) 97,87 %
06.09.2023 08:06 16,3 C 15,6 C 12,2 C 91 % 1020,6 hPa 0,0 l/m 0 min 0 min 18 W/m 0,0 km/h (0 Bft) 100,00 %
06.09.2023 08:08 16,3 C 15,6 C 12,2 C 92 % 1020,6 hPa 0,0 l/m 0 min 0 min 18 W/m 0,0 km/h (0 Bft) 100,00 %
06.09.2023 08:10 16,3 C 15,6 C 12,2 C 92 % 1020,5 hPa 0,0 l/m 0 min 0 min 19 W/m 0,0 km/h (0 Bft) 100,00 %
06.09.2023 08:12 16,3 C 15,6 C 12,2 C 92 % 1020,5 hPa 0,0 l/m 0 min 0 min 19 W/m 0,0 km/h (0 Bft) 100,00 %
06.09.2023 08:14 16,3 C 15,6 C 12,2 C 92 % 1020,6 hPa 0,0 l/m 0 min 0 min 19 W/m 0,0 km/h (0 Bft) 100,00 %
06.09.2023 08:16 16,3 C 16,1 C 12,2 C 92 % 1020,6 hPa 0,0 l/m 0 min 0 min 19 W/m 3,2 km/h (1 Bft) 95,74 %
06.09.2023 08:18 16,3 C 16,1 C 12,2 C 92 % 1020,6 hPa 0,0 l/m 0 min 0 min 19 W/m 0,0 km/h (0 Bft) 100,00 %
06.09.2023 08:20 16,3 C 16,1 C 12,2 C 92 % 1020,6 hPa 0,0 l/m 0 min 0 min 21 W/m 3,2 km/h (1 Bft) 97,83 %
06.09.2023 08:22 16,3 C 16,1 C 12,2 C 92 % 1020,6 hPa 0,0 l/m 0 min 0 min 21 W/m 0,0 km/h (0 Bft) 100,00 %
06.09.2023 08:24 16,3 C 16,1 C 12,8 C 92 % 1020,6 hPa 0,0 l/m 0 min 0 min 21 W/m 0,0 km/h (0 Bft) 100,00 %
06.09.2023 08:26 16,3 C 16,1 C 12,8 C 92 % 1020,6 hPa 0,0 l/m 0 min 0 min 21 W/m 0,0 km/h (0 Bft) 100,00 %
06.09.2023 08:28 16,4 C 16,7 C 12,8 C 92 % 1020,6 hPa 0,0 l/m 0 min 0 min 21 W/m 3,2 km/h (1 Bft) 100,00 %
06.09.2023 08:30 16,4 C 16,7 C 12,8 C 92 % 1020,6 hPa 0,0 l/m 0 min 0 min 23 W/m 3,2 km/h (1 Bft) 100,00 %
06.09.2023 08:32 16,4 C 16,7 C 12,8 C 92 % 1020,6 hPa 0,0 l/m 0 min 0 min 23 W/m 3,2 km/h (1 Bft) 100,00 %
06.09.2023 08:34 16,5 C 17,2 C 13,3 C 93 % 1020,6 hPa 0,0 l/m 0 min 0 min 23 W/m 3,2 km/h (1 Bft) 100,00 %
06.09.2023 08:36 16,6 C 17,2 C 13,3 C 93 % 1020,6 hPa 0,0 l/m 0 min 0 min 23 W/m 3,2 km/h (1 Bft) 100,00 %
06.09.2023 08:38 16,6 C 17,2 C 13,3 C 93 % 1020,6 hPa 0,0 l/m 0 min 0 min 24 W/m 3,2 km/h (1 Bft) 97,87 %
06.09.2023 08:40 16,7 C 17,8 C 13,9 C 93 % 1020,6 hPa 0,0 l/m 0 min 0 min 25 W/m 6,4 km/h (2 Bft) 100,00 %
06.09.2023 08:42 16,8 C 17,8 C 13,9 C 93 % 1020,6 hPa 0,0 l/m 0 min 0 min 25 W/m 6,4 km/h (2 Bft) 100,00 %
06.09.2023 08:44 16,9 C 17,8 C 13,9 C 93 % 1020,6 hPa 0,0 l/m 0 min 0 min 25 W/m 6,4 km/h (2 Bft) 100,00 %
06.09.2023 08:46 16,9 C 18,3 C 13,9 C 93 % 1020,6 hPa 0,0 l/m 0 min 0 min 25 W/m 3,2 km/h (1 Bft) 100,00 %
06.09.2023 08:48 17,0 C 18,3 C 14,4 C 93 % 1020,7 hPa 0,0 l/m 0 min 0 min 26 W/m 3,2 km/h (1 Bft) 97,83 %
06.09.2023 08:50 17,1 C 18,3 C 14,4 C 93 % 1020,7 hPa 0,0 l/m 0 min 0 min 26 W/m 3,2 km/h (1 Bft) 97,87 %
06.09.2023 08:52 17,2 C 18,3 C 14,4 C 93 % 1020,7 hPa 0,0 l/m 0 min 0 min 26 W/m 3,2 km/h (1 Bft) 100,00 %
06.09.2023 08:54 17,2 C 18,9 C 14,4 C 92 % 1020,7 hPa 0,0 l/m 0 min 0 min 26 W/m 3,2 km/h (1 Bft) 95,74 %
06.09.2023 08:56 17,3 C 18,9 C 14,4 C 92 % 1020,7 hPa 0,0 l/m 0 min 0 min 28 W/m 3,2 km/h (1 Bft) 93,62 %
06.09.2023 08:58 17,4 C 18,9 C 14,4 C 92 % 1020,7 hPa 0,0 l/m 0 min 0 min 28 W/m 6,4 km/h (2 Bft) 97,87 %
06.09.2023 09:00 17,5 C 18,9 C 14,4 C 92 % 1020,7 hPa 0,0 l/m 0 min 0 min 30 W/m 3,2 km/h (1 Bft) 97,87 %
06.09.2023 09:02 17,6 C 18,9 C 15,0 C 91 % 1020,8 hPa 0,0 l/m 0 min 0 min 53 W/m 3,2 km/h (1 Bft) 95,65 %
06.09.2023 09:04 17,7 C 18,9 C 15,0 C 91 % 1020,8 hPa 0,0 l/m 2 min 0 min 164 W/m 3,2 km/h (1 Bft) 95,56 %
06.09.2023 09:06 17,8 C 18,9 C 15,0 C 91 % 1020,8 hPa 0,0 l/m 0 min 0 min 147 W/m 6,4 km/h (2 Bft) 97,87 %
06.09.2023 09:08 17,9 C 19,4 C 15,0 C 91 % 1020,7 hPa 0,0 l/m 2 min 0 min 245 W/m 12,9 km/h (3 Bft) 97,87 %
06.09.2023 09:10 18,0 C 19,4 C 15,0 C 90 % 1020,8 hPa 0,0 l/m 2 min 0 min 331 W/m 3,2 km/h (1 Bft) 97,87 %
06.09.2023 09:12 18,1 C 19,4 C 15,0 C 90 % 1020,8 hPa 0,0 l/m 2 min 0 min 194 W/m 3,2 km/h (1 Bft) 97,87 %
06.09.2023 09:14 18,2 C 19,4 C 15,0 C 90 % 1020,8 hPa 0,0 l/m 0 min 0 min 47 W/m 3,2 km/h (1 Bft) 97,87 %
06.09.2023 09:16 18,4 C 19,4 C 15,0 C 89 % 1020,9 hPa 0,0 l/m 0 min 0 min 36 W/m 6,4 km/h (2 Bft) 97,83 %
06.09.2023 09:18 18,6 C 20,0 C 15,6 C 89 % 1020,9 hPa 0,0 l/m 0 min 0 min 94 W/m 3,2 km/h (1 Bft) 95,74 %
06.09.2023 09:20 18,7 C 20,0 C 15,6 C 89 % 1020,9 hPa 0,0 l/m 0 min 0 min 45 W/m 6,4 km/h (2 Bft) 97,87 %
06.09.2023 09:22 18,8 C 20,0 C 15,6 C 88 % 1020,9 hPa 0,0 l/m 0 min 0 min 87 W/m 3,2 km/h (1 Bft) 95,74 %
06.09.2023 09:24 19,0 C 20,0 C 15,6 C 87 % 1020,9 hPa 0,0 l/m 0 min 0 min 104 W/m 6,4 km/h (2 Bft) 95,74 %
06.09.2023 09:26 19,2 C 20,0 C 15,6 C 87 % 1020,9 hPa 0,0 l/m 0 min 0 min 58 W/m 6,4 km/h (2 Bft) 95,74 %
06.09.2023 09:28 19,3 C 20,0 C 15,6 C 86 % 1020,9 hPa 0,0 l/m 0 min 0 min 37 W/m 3,2 km/h (1 Bft) 95,74 %
06.09.2023 09:30 19,4 C 20,0 C 16,1 C 86 % 1020,9 hPa 0,0 l/m 0 min 0 min 57 W/m 3,2 km/h (1 Bft) 95,65 %
06.09.2023 09:32 19,6 C 20,0 C 16,1 C 85 % 1020,9 hPa 0,0 l/m 0 min 0 min 65 W/m 6,4 km/h (2 Bft) 93,62 %
06.09.2023 09:34 19,7 C 20,0 C 16,1 C 84 % 1020,9 hPa 0,0 l/m 0 min 0 min 49 W/m 3,2 km/h (1 Bft) 93,62 %
06.09.2023 09:36 19,8 C 20,6 C 16,1 C 84 % 1020,9 hPa 0,0 l/m 0 min 0 min 40 W/m 3,2 km/h (1 Bft) 93,62 %
06.09.2023 09:38 20,0 C 20,6 C 16,1 C 83 % 1020,9 hPa 0,0 l/m 0 min 0 min 54 W/m 3,2 km/h (1 Bft) 93,62 %
06.09.2023 09:40 20,1 C 20,6 C 16,1 C 83 % 1020,9 hPa 0,0 l/m 0 min 0 min 60 W/m 6,4 km/h (2 Bft) 91,49 %
06.09.2023 09:42 20,2 C 20,6 C 16,1 C 82 % 1020,9 hPa 0,0 l/m 0 min 0 min 39 W/m 3,2 km/h (1 Bft) 93,62 %
06.09.2023 09:44 20,3 C 20,6 C 16,1 C 82 % 1020,9 hPa 0,0 l/m 0 min 0 min 36 W/m 3,2 km/h (1 Bft) 91,30 %
06.09.2023 09:46 20,4 C 20,6 C 16,7 C 81 % 1020,9 hPa 0,0 l/m 0 min 0 min 35 W/m 3,2 km/h (1 Bft) 93,62 %
06.09.2023 09:48 20,6 C 21,1 C 16,7 C 81 % 1020,9 hPa 0,0 l/m 0 min 0 min 39 W/m 3,2 km/h (1 Bft) 95,74 %
06.09.2023 09:50 20,7 C 21,1 C 16,7 C 80 % 1020,9 hPa 0,0 l/m 0 min 0 min 57 W/m 6,4 km/h (2 Bft) 95,74 %
06.09.2023 09:52 20,8 C 21,1 C 16,7 C 80 % 1021,0 hPa 0,0 l/m 0 min 0 min 38 W/m 6,4 km/h (2 Bft) 93,62 %
06.09.2023 09:54 20,8 C 21,1 C 16,7 C 80 % 1021,0 hPa 0,0 l/m 0 min 0 min 43 W/m 6,4 km/h (2 Bft) 95,74 %
06.09.2023 09:56 20,9 C 21,1 C 16,7 C 79 % 1021,0 hPa 0,0 l/m 0 min 0 min 125 W/m 6,4 km/h (2 Bft) 97,87 %
06.09.2023 09:58 21,0 C 21,1 C 16,7 C 79 % 1021,0 hPa 0,0 l/m 2 min 0 min 283 W/m 12,9 km/h (3 Bft) 97,83 %
06.09.2023 10:00 21,1 C 21,1 C 16,7 C 78 % 1021,0 hPa 0,0 l/m 2 min 0 min 326 W/m 6,4 km/h (2 Bft) 95,74 %
06.09.2023 10:02 21,2 C 21,1 C 16,7 C 78 % 1021,0 hPa 0,0 l/m 2 min 0 min 269 W/m 6,4 km/h (2 Bft) 97,87 %
06.09.2023 10:04 21,3 C 21,7 C 17,2 C 78 % 1021,0 hPa 0,0 l/m 2 min 0 min 239 W/m 6,4 km/h (2 Bft) 97,96 %
06.09.2023 10:06 21,4 C 21,7 C 17,2 C 77 % 1021,0 hPa 0,0 l/m 0 min 0 min 58 W/m 6,4 km/h (2 Bft) 97,87 %
06.09.2023 10:08 21,5 C 21,7 C 17,2 C 76 % 1021,0 hPa 0,0 l/m 0 min 0 min 202 W/m 6,4 km/h (2 Bft) 97,87 %
06.09.2023 10:10 21,6 C 21,7 C 17,2 C 76 % 1021,0 hPa 0,0 l/m 2 min 0 min 425 W/m 9,7 km/h (2 Bft) 97,87 %
06.09.2023 10:12 21,7 C 21,7 C 17,2 C 76 % 1021,0 hPa 0,0 l/m 2 min 0 min 339 W/m 6,4 km/h (2 Bft) 97,87 %
06.09.2023 10:14 21,8 C 21,7 C 17,2 C 76 % 1021,0 hPa 0,0 l/m 0 min 0 min 94 W/m 6,4 km/h (2 Bft) 97,87 %
06.09.2023 10:16 21,9 C 22,2 C 17,2 C 76 % 1021,0 hPa 0,0 l/m 0 min 0 min 75 W/m 12,9 km/h (3 Bft) 97,83 %
06.09.2023 10:18 22,0 C 22,2 C 17,8 C 74 % 1021,0 hPa 0,0 l/m 0 min 0 min 45 W/m 9,7 km/h (2 Bft) 100,00 %
06.09.2023 10:20 22,1 C 22,2 C 17,8 C 74 % 1020,9 hPa 0,0 l/m 0 min 0 min 39 W/m 9,7 km/h (2 Bft) 100,00 %
06.09.2023 10:22 22,2 C 22,8 C 17,8 C 74 % 1021,0 hPa 0,0 l/m 0 min 0 min 40 W/m 9,7 km/h (2 Bft) 97,87 %
06.09.2023 10:24 22,2 C 23,3 C 18,3 C 73 % 1020,9 hPa 0,0 l/m 0 min 0 min 41 W/m 6,4 km/h (2 Bft) 100,00 %
06.09.2023 10:26 22,3 C 23,9 C 18,3 C 73 % 1021,0 hPa 0,0 l/m 0 min 0 min 51 W/m 6,4 km/h (2 Bft) 100,00 %
06.09.2023 10:28 22,4 C 23,9 C 18,3 C 72 % 1021,0 hPa 0,0 l/m 0 min 0 min 53 W/m 6,4 km/h (2 Bft) 97,87 %
06.09.2023 10:30 22,6 C 23,9 C 18,3 C 72 % 1021,0 hPa 0,0 l/m 0 min 0 min 79 W/m 9,7 km/h (2 Bft) 100,00 %
06.09.2023 10:32 22,7 C 23,3 C 18,3 C 72 % 1021,0 hPa 0,0 l/m 0 min 0 min 83 W/m 9,7 km/h (2 Bft) 97,87 %
06.09.2023 10:34 22,7 C 23,3 C 18,3 C 72 % 1021,0 hPa 0,0 l/m 0 min 0 min 102 W/m 12,9 km/h (3 Bft) 100,00 %
06.09.2023 10:36 22,8 C 23,3 C 18,3 C 71 % 1021,0 hPa 0,0 l/m 0 min 0 min 68 W/m 12,9 km/h (3 Bft) 100,00 %
06.09.2023 10:38 22,9 C 23,9 C 18,3 C 70 % 1021,0 hPa 0,0 l/m 0 min 0 min 58 W/m 9,7 km/h (2 Bft) 100,00 %
06.09.2023 10:40 22,9 C 23,9 C 18,3 C 70 % 1021,0 hPa 0,0 l/m 0 min 0 min 63 W/m 12,9 km/h (3 Bft) 100,00 %
06.09.2023 10:42 23,1 C 23,9 C 18,3 C 70 % 1020,9 hPa 0,0 l/m 0 min 0 min 47 W/m 12,9 km/h (3 Bft) 100,00 %
06.09.2023 10:44 23,2 C 23,3 C 18,9 C 70 % 1021,0 hPa 0,0 l/m 0 min 0 min 41 W/m 12,9 km/h (3 Bft) 100,00 %
06.09.2023 10:46 23,2 C 23,9 C 18,9 C 70 % 1020,9 hPa 0,0 l/m 0 min 0 min 58 W/m 6,4 km/h (2 Bft) 100,00 %
06.09.2023 10:48 23,3 C 23,9 C 18,9 C 70 % 1020,9 hPa 0,0 l/m 0 min 0 min 63 W/m 6,4 km/h (2 Bft) 100,00 %
06.09.2023 10:50 23,4 C 23,9 C 18,9 C 70 % 1021,0 hPa 0,0 l/m 0 min 0 min 44 W/m 6,4 km/h (2 Bft) 100,00 %
06.09.2023 10:52 23,5 C 24,4 C 18,9 C 70 % 1021,0 hPa 0,0 l/m 0 min 0 min 44 W/m 6,4 km/h (2 Bft) 100,00 %
06.09.2023 10:54 23,6 C 25,6 C 18,9 C 70 % 1021,0 hPa 0,0 l/m 0 min 0 min 57 W/m 6,4 km/h (2 Bft) 97,83 %
06.09.2023 10:56 23,7 C 26,1 C 18,9 C 70 % 1021,0 hPa 0,0 l/m 0 min 0 min 54 W/m 3,2 km/h (1 Bft) 97,87 %
06.09.2023 10:58 23,8 C 27,2 C 18,9 C 71 % 1021,0 hPa 0,0 l/m 0 min 0 min 90 W/m 6,4 km/h (2 Bft) 100,00 %
06.09.2023 11:00 23,8 C 27,2 C 18,9 C 70 % 1021,0 hPa 0,0 l/m 0 min 0 min 113 W/m 6,4 km/h (2 Bft) 97,14 %
06.09.2023 11:02 23,9 C 26,7 C 18,9 C 70 % 1021,0 hPa 0,0 l/m 2 min 0 min 353 W/m 12,9 km/h (3 Bft) 100,00 %
06.09.2023 11:04 24,0 C 25,6 C 18,9 C 69 % 1021,0 hPa 0,0 l/m 2 min 0 min 610 W/m 6,4 km/h (2 Bft) 100,00 %
06.09.2023 11:06 24,1 C 25,6 C 19,4 C 69 % 1021,1 hPa 0,0 l/m 2 min 0 min 475 W/m 16,1 km/h (3 Bft) 98,31 %
06.09.2023 11:08 24,2 C 26,1 C 19,4 C 68 % 1021,0 hPa 0,0 l/m 0 min 0 min 249 W/m 6,4 km/h (2 Bft) 100,00 %
06.09.2023 11:10 24,3 C 26,7 C 19,4 C 68 % 1021,0 hPa 0,0 l/m 2 min 0 min 357 W/m 9,7 km/h (2 Bft) 97,14 %
06.09.2023 11:12 24,4 C 27,8 C 19,4 C 68 % 1021,0 hPa 0,0 l/m 2 min 0 min 384 W/m 9,7 km/h (2 Bft) 100,00 %
06.09.2023 11:14 24,5 C 27,8 C 19,4 C 67 % 1021,0 hPa 0,0 l/m 2 min 0 min 336 W/m 12,9 km/h (3 Bft) 100,00 %
06.09.2023 11:16 24,6 C 27,2 C 19,4 C 66 % 1021,1 hPa 0,0 l/m 0 min 0 min 265 W/m 9,7 km/h (2 Bft) 97,87 %
06.09.2023 11:18 24,6 C 27,2 C 20,0 C 66 % 1021,1 hPa 0,0 l/m 2 min 0 min 561 W/m 9,7 km/h (2 Bft) 97,87 %
06.09.2023 11:20 24,7 C 26,7 C 20,0 C 65 % 1021,1 hPa 0,0 l/m 2 min 0 min 348 W/m 22,5 km/h (4 Bft) 100,00 %
06.09.2023 11:22 24,8 C 26,1 C 20,0 C 65 % 1021,0 hPa 0,0 l/m 2 min 0 min 329 W/m 9,7 km/h (2 Bft) 100,00 %
06.09.2023 11:24 24,9 C 26,1 C 20,0 C 66 % 1021,1 hPa 0,0 l/m 0 min 0 min 238 W/m 6,4 km/h (2 Bft) 97,87 %
06.09.2023 11:26 25,1 C 26,1 C 20,0 C 65 % 1021,1 hPa 0,0 l/m 0 min 0 min 214 W/m 12,9 km/h (3 Bft) 95,65 %
06.09.2023 11:28 25,2 C 26,1 C 20,0 C 65 % 1021,1 hPa 0,0 l/m 0 min 0 min 128 W/m 12,9 km/h (3 Bft) 97,87 %
06.09.2023 11:30 25,2 C 26,1 C 20,0 C 65 % 1021,0 hPa 0,0 l/m 0 min 0 min 109 W/m 9,7 km/h (2 Bft) 97,87 %
06.09.2023 11:32 25,2 C 26,1 C 20,6 C 65 % 1021,0 hPa 0,0 l/m 2 min 0 min 366 W/m 6,4 km/h (2 Bft) 97,87 %
06.09.2023 11:34 25,3 C 27,2 C 20,6 C 64 % 1021,0 hPa 0,0 l/m 2 min 0 min 379 W/m 16,1 km/h (3 Bft) 97,87 %
06.09.2023 11:36 25,4 C 27,2 C 20,6 C 64 % 1021,0 hPa 0,0 l/m 0 min 0 min 108 W/m 6,4 km/h (2 Bft) 95,74 %
06.09.2023 11:38 25,6 C 27,2 C 21,1 C 64 % 1021,0 hPa 0,0 l/m 0 min 0 min 70 W/m 9,7 km/h (2 Bft) 97,87 %
06.09.2023 11:40 25,6 C 27,8 C 21,1 C 64 % 1020,9 hPa 0,0 l/m 0 min 0 min 98 W/m 12,9 km/h (3 Bft) 97,87 %
06.09.2023 11:42 25,7 C 28,3 C 21,7 C 64 % 1020,9 hPa 0,0 l/m 0 min 0 min 179 W/m 9,7 km/h (2 Bft) 97,83 %
06.09.2023 11:44 25,8 C 28,3 C 21,7 C 63 % 1020,9 hPa 0,0 l/m 0 min 0 min 207 W/m 9,7 km/h (2 Bft) 95,74 %
06.09.2023 11:46 25,9 C 28,3 C 21,7 C 63 % 1020,9 hPa 0,0 l/m 2 min 0 min 327 W/m 12,9 km/h (3 Bft) 93,62 %
06.09.2023 11:48 25,9 C 28,9 C 21,7 C 62 % 1020,9 hPa 0,0 l/m 0 min 0 min 262 W/m 6,4 km/h (2 Bft) 95,74 %
06.09.2023 11:50 26,0 C 30,0 C 22,2 C 62 % 1020,9 hPa 0,0 l/m 0 min 0 min 120 W/m 6,4 km/h (2 Bft) 95,74 %
06.09.2023 11:52 26,1 C 30,0 C 22,2 C 62 % 1020,9 hPa 0,0 l/m 2 min 0 min 534 W/m 16,1 km/h (3 Bft) 95,74 %
06.09.2023 11:54 26,2 C 28,9 C 22,8 C 61 % 1020,9 hPa 0,0 l/m 2 min 0 min 708 W/m 16,1 km/h (3 Bft) 97,83 %
06.09.2023 11:56 26,3 C 28,9 C 22,8 C 61 % 1020,8 hPa 0,0 l/m 2 min 0 min 714 W/m 9,7 km/h (2 Bft) 97,87 %
06.09.2023 11:58 26,4 C 28,9 C 23,3 C 61 % 1020,9 hPa 0,0 l/m 2 min 0 min 717 W/m 9,7 km/h (2 Bft) 100,00 %
06.09.2023 12:00 26,5 C 28,9 C 23,9 C 59 % 1020,9 hPa 0,0 l/m 2 min 0 min 719 W/m 12,9 km/h (3 Bft) 100,00 %
06.09.2023 12:02 26,6 C 28,9 C 23,9 C 59 % 1020,8 hPa 0,0 l/m 2 min 0 min 722 W/m 6,4 km/h (2 Bft) 95,74 %
06.09.2023 12:04 26,7 C 29,4 C 24,4 C 59 % 1020,8 hPa 0,0 l/m 2 min 0 min 724 W/m 6,4 km/h (2 Bft) 97,62 %
06.09.2023 12:08 26,9 C 32,2 C 23,9 C 59 % 1020,8 hPa 0,0 l/m 4 min 0 min 729 W/m 12,9 km/h (3 Bft) 96,08 %
06.09.2023 12:10 27,1 C 33,3 C 23,9 C 58 % 1020,8 hPa 0,0 l/m 2 min 0 min 734 W/m 9,7 km/h (2 Bft) 95,74 %
06.09.2023 12:12 27,2 C 34,4 C 23,9 C 58 % 1020,8 hPa 0,0 l/m 2 min 0 min 735 W/m 6,4 km/h (2 Bft) 95,74 %
06.09.2023 12:14 27,2 C 35,0 C 23,9 C 57 % 1020,8 hPa 0,0 l/m 2 min 0 min 738 W/m 9,7 km/h (2 Bft) 93,62 %
06.09.2023 12:16 27,3 C 35,0 C 23,9 C 57 % 1020,7 hPa 0,0 l/m 2 min 0 min 740 W/m 6,4 km/h (2 Bft) 93,62 %
06.09.2023 12:18 27,4 C 34,4 C 23,3 C 57 % 1020,8 hPa 0,0 l/m 2 min 0 min 742 W/m 6,4 km/h (2 Bft) 95,74 %
06.09.2023 12:20 27,5 C 32,2 C 22,8 C 57 % 1020,8 hPa 0,0 l/m 2 min 0 min 744 W/m 12,9 km/h (3 Bft) 93,62 %
06.09.2023 12:22 27,6 C 31,1 C 22,8 C 55 % 1020,8 hPa 0,0 l/m 2 min 0 min 742 W/m 16,1 km/h (3 Bft) 95,65 %
06.09.2023 12:24 27,6 C 31,7 C 22,8 C 56 % 1020,7 hPa 0,0 l/m 2 min 0 min 737 W/m 12,9 km/h (3 Bft) 95,74 %
06.09.2023 12:26 27,6 C 32,2 C 22,2 C 56 % 1020,7 hPa 0,0 l/m 2 min 0 min 739 W/m 9,7 km/h (2 Bft) 95,74 %
06.09.2023 12:28 27,7 C 32,2 C 22,2 C 57 % 1020,7 hPa 0,0 l/m 2 min 0 min 518 W/m 3,2 km/h (1 Bft) 95,74 %
06.09.2023 12:30 27,7 C 32,2 C 22,2 C 56 % 1020,8 hPa 0,0 l/m 0 min 0 min 88 W/m 6,4 km/h (2 Bft) 95,74 %
06.09.2023 12:32 27,8 C 31,1 C 22,2 C 57 % 1020,7 hPa 0,0 l/m 0 min 0 min 130 W/m 6,4 km/h (2 Bft) 95,74 %
06.09.2023 12:34 27,9 C 30,0 C 22,2 C 56 % 1020,7 hPa 0,0 l/m 2 min 0 min 444 W/m 6,4 km/h (2 Bft) 95,65 %
06.09.2023 12:36 27,9 C 29,4 C 22,2 C 56 % 1020,7 hPa 0,0 l/m 2 min 0 min 400 W/m 6,4 km/h (2 Bft) 95,74 %
06.09.2023 12:38 28,0 C 28,9 C 22,2 C 56 % 1020,7 hPa 0,0 l/m 0 min 0 min 151 W/m 12,9 km/h (3 Bft) 93,62 %
06.09.2023 12:40 28,0 C 28,3 C 22,2 C 56 % 1020,7 hPa 0,0 l/m 0 min 0 min 62 W/m 9,7 km/h (2 Bft) 95,74 %
06.09.2023 12:42 28,1 C 27,8 C 22,2 C 55 % 1020,7 hPa 0,0 l/m 0 min 0 min 67 W/m 9,7 km/h (2 Bft) 93,62 %
06.09.2023 12:44 28,1 C 27,8 C 22,2 C 54 % 1020,7 hPa 0,0 l/m 0 min 0 min 78 W/m 16,1 km/h (3 Bft) 93,62 %
06.09.2023 12:46 28,1 C 27,2 C 22,2 C 55 % 1020,7 hPa 0,0 l/m 0 min 0 min 114 W/m 12,9 km/h (3 Bft) 95,74 %
06.09.2023 12:48 28,1 C 27,2 C 22,2 C 53 % 1020,7 hPa 0,0 l/m 0 min 0 min 141 W/m 9,7 km/h (2 Bft) 95,74 %
06.09.2023 12:50 28,1 C 27,2 C 22,8 C 52 % 1020,7 hPa 0,0 l/m 0 min 0 min 134 W/m 12,9 km/h (3 Bft) 97,83 %
06.09.2023 12:52 28,1 C 27,2 C 22,8 C 54 % 1020,7 hPa 0,0 l/m 0 min 0 min 48 W/m 9,7 km/h (2 Bft) 97,87 %
06.09.2023 12:54 28,2 C 27,2 C 22,2 C 54 % 1020,7 hPa 0,0 l/m 0 min 0 min 49 W/m 6,4 km/h (2 Bft) 100,00 %
06.09.2023 12:56 28,2 C 27,2 C 22,8 C 52 % 1020,7 hPa 0,0 l/m 0 min 0 min 55 W/m 12,9 km/h (3 Bft) 97,87 %
06.09.2023 12:58 28,2 C 27,2 C 22,8 C 51 % 1020,7 hPa 0,0 l/m 0 min 0 min 48 W/m 9,7 km/h (2 Bft) 100,00 %
06.09.2023 13:00 28,2 C 27,2 C 22,8 C 52 % 1020,7 hPa 0,0 l/m 0 min 0 min 52 W/m 16,1 km/h (3 Bft) 100,00 %
06.09.2023 13:02 28,2 C 27,2 C 22,8 C 51 % 1020,7 hPa 0,0 l/m 0 min 0 min 48 W/m 12,9 km/h (3 Bft) 100,00 %
06.09.2023 13:04 28,2 C 27,2 C 22,8 C 50 % 1020,7 hPa 0,0 l/m 0 min 0 min 49 W/m 16,1 km/h (3 Bft) 97,87 %
06.09.2023 13:06 28,2 C 27,2 C 22,8 C 50 % 1020,7 hPa 0,0 l/m 0 min 0 min 46 W/m 19,3 km/h (3 Bft) 100,00 %
06.09.2023 13:08 28,2 C 27,2 C 22,8 C 50 % 1020,7 hPa 0,0 l/m 0 min 0 min 46 W/m 12,9 km/h (3 Bft) 100,00 %
06.09.2023 13:10 28,2 C 27,2 C 22,8 C 50 % 1020,7 hPa 0,0 l/m 0 min 0 min 46 W/m 16,1 km/h (3 Bft) 97,87 %
06.09.2023 13:12 28,2 C 27,2 C 22,8 C 51 % 1020,7 hPa 0,0 l/m 0 min 0 min 46 W/m 12,9 km/h (3 Bft) 100,00 %
06.09.2023 13:14 28,2 C 27,2 C 22,8 C 50 % 1020,7 hPa 0,0 l/m 0 min 0 min 46 W/m 9,7 km/h (2 Bft) 100,00 %
06.09.2023 13:16 28,3 C 27,2 C 22,8 C 50 % 1020,6 hPa 0,0 l/m 0 min 0 min 46 W/m 12,9 km/h (3 Bft) 100,00 %
06.09.2023 13:18 28,3 C 27,2 C 22,8 C 50 % 1020,6 hPa 0,0 l/m 0 min 0 min 47 W/m 12,9 km/h (3 Bft) 100,00 %
06.09.2023 13:20 28,3 C 27,2 C 22,8 C 51 % 1020,6 hPa 0,0 l/m 0 min 0 min 47 W/m 9,7 km/h (2 Bft) 95,74 %
06.09.2023 13:22 28,3 C 27,2 C 22,8 C 50 % 1020,6 hPa 0,0 l/m 0 min 0 min 53 W/m 9,7 km/h (2 Bft) 97,87 %
06.09.2023 13:24 28,4 C 27,2 C 22,8 C 50 % 1020,6 hPa 0,0 l/m 0 min 0 min 56 W/m 9,7 km/h (2 Bft) 95,74 %
06.09.2023 13:26 28,4 C 27,2 C 22,8 C 50 % 1020,5 hPa 0,0 l/m 0 min 0 min 101 W/m 9,7 km/h (2 Bft) 97,87 %
06.09.2023 13:28 28,4 C 27,8 C 22,8 C 51 % 1020,5 hPa 0,0 l/m 0 min 0 min 165 W/m 16,1 km/h (3 Bft) 97,87 %
06.09.2023 13:30 28,4 C 27,8 C 22,8 C 50 % 1020,6 hPa 0,0 l/m 0 min 0 min 97 W/m 12,9 km/h (3 Bft) 97,87 %
06.09.2023 13:32 28,5 C 27,2 C 22,8 C 51 % 1020,6 hPa 0,0 l/m 0 min 0 min 96 W/m 12,9 km/h (3 Bft) 97,83 %
06.09.2023 13:34 28,5 C 27,8 C 22,8 C 50 % 1020,6 hPa 0,0 l/m 0 min 0 min 77 W/m 9,7 km/h (2 Bft) 97,87 %
06.09.2023 13:36 28,6 C 27,8 C 22,8 C 51 % 1020,5 hPa 0,0 l/m 0 min 0 min 157 W/m 16,1 km/h (3 Bft) 97,87 %
06.09.2023 13:38 28,6 C 27,8 C 22,8 C 51 % 1020,5 hPa 0,0 l/m 2 min 0 min 401 W/m 6,4 km/h (2 Bft) 97,87 %
06.09.2023 13:40 28,6 C 27,8 C 22,8 C 51 % 1020,5 hPa 0,0 l/m 0 min 0 min 197 W/m 12,9 km/h (3 Bft) 97,87 %
06.09.2023 13:42 28,6 C 27,8 C 22,8 C 50 % 1020,4 hPa 0,0 l/m 0 min 0 min 93 W/m 9,7 km/h (2 Bft) 97,87 %
06.09.2023 13:44 28,6 C 27,8 C 22,8 C 51 % 1020,5 hPa 0,0 l/m 0 min 0 min 140 W/m 16,1 km/h (3 Bft) 95,74 %
06.09.2023 13:46 28,7 C 27,8 C 22,8 C 50 % 1020,5 hPa 0,0 l/m 2 min 0 min 555 W/m 16,1 km/h (3 Bft) 97,83 %
06.09.2023 13:48 28,8 C 28,3 C 22,8 C 50 % 1020,5 hPa 0,0 l/m 2 min 0 min 770 W/m 6,4 km/h (2 Bft) 97,87 %
06.09.2023 13:50 28,8 C 28,3 C 22,8 C 49 % 1020,4 hPa 0,0 l/m 2 min 0 min 780 W/m 19,3 km/h (3 Bft) 97,87 %
06.09.2023 13:52 28,8 C 28,3 C 22,8 C 48 % 1020,4 hPa 0,0 l/m 2 min 0 min 779 W/m 6,4 km/h (2 Bft) 97,87 %
06.09.2023 13:54 28,9 C 28,9 C 22,8 C 50 % 1020,4 hPa 0,0 l/m 2 min 0 min 781 W/m 9,7 km/h (2 Bft) 100,00 %
06.09.2023 13:56 28,9 C 29,4 C 22,8 C 49 % 1020,4 hPa 0,0 l/m 2 min 0 min 782 W/m 9,7 km/h (2 Bft) 97,87 %
06.09.2023 13:58 29,1 C 29,4 C 23,3 C 50 % 1020,4 hPa 0,0 l/m 2 min 0 min 785 W/m 12,9 km/h (3 Bft) 100,00 %
06.09.2023 14:00 29,1 C 30,0 C 23,3 C 48 % 1020,3 hPa 0,0 l/m 2 min 0 min 780 W/m 12,9 km/h (3 Bft) 97,83 %
06.09.2023 14:02 29,2 C 31,1 C 23,3 C 49 % 1020,3 hPa 0,0 l/m 2 min 0 min 782 W/m 6,4 km/h (2 Bft) 100,00 %
06.09.2023 14:04 29,3 C 32,8 C 23,3 C 49 % 1020,3 hPa 0,0 l/m 2 min 0 min 780 W/m 6,4 km/h (2 Bft) 100,00 %
06.09.2023 14:06 29,3 C 34,4 C 23,3 C 49 % 1020,3 hPa 0,0 l/m 2 min 0 min 780 W/m 12,9 km/h (3 Bft) 100,00 %
06.09.2023 14:08 29,4 C 35,0 C 23,3 C 49 % 1020,3 hPa 0,0 l/m 2 min 0 min 780 W/m 6,4 km/h (2 Bft) 100,00 %
06.09.2023 14:10 29,5 C 35,6 C 23,3 C 48 % 1020,1 hPa 0,0 l/m 2 min 0 min 778 W/m 12,9 km/h (3 Bft) 100,00 %
06.09.2023 14:12 29,6 C 36,7 C 23,3 C 49 % 1020,2 hPa 0,0 l/m 2 min 0 min 775 W/m 12,9 km/h (3 Bft) 100,00 %
06.09.2023 14:14 29,7 C 36,7 C 23,3 C 48 % 1020,1 hPa 0,0 l/m 2 min 0 min 780 W/m 16,1 km/h (3 Bft) 100,00 %
06.09.2023 14:16 29,8 C 36,1 C 23,3 C 48 % 1020,1 hPa 0,0 l/m 2 min 0 min 778 W/m 16,1 km/h (3 Bft) 100,00 %
06.09.2023 14:18 29,9 C 36,7 C 23,3 C 49 % 1020,2 hPa 0,0 l/m 2 min 0 min 776 W/m 19,3 km/h (3 Bft) 100,00 %
06.09.2023 14:20 29,9 C 36,1 C 23,3 C 48 % 1020,1 hPa 0,0 l/m 2 min 0 min 778 W/m 9,7 km/h (2 Bft) 97,87 %
06.09.2023 14:22 30,0 C 36,1 C 23,3 C 48 % 1020,1 hPa 0,0 l/m 2 min 0 min 753 W/m 9,7 km/h (2 Bft) 100,00 %
06.09.2023 14:24 30,1 C 36,1 C 23,3 C 49 % 1020,1 hPa 0,0 l/m 2 min 0 min 757 W/m 12,9 km/h (3 Bft) 97,87 %
06.09.2023 14:26 30,1 C 35,6 C 23,3 C 48 % 1020,1 hPa 0,0 l/m 2 min 0 min 763 W/m 12,9 km/h (3 Bft) 100,00 %
06.09.2023 14:28 30,1 C 35,6 C 23,3 C 48 % 1020,1 hPa 0,0 l/m 2 min 0 min 764 W/m 12,9 km/h (3 Bft) 100,00 %
06.09.2023 14:30 30,2 C 36,1 C 23,3 C 47 % 1020,1 hPa 0,0 l/m 2 min 0 min 768 W/m 6,4 km/h (2 Bft) 100,00 %
06.09.2023 14:32 30,2 C 35,6 C 23,3 C 48 % 1020,1 hPa 0,0 l/m 2 min 0 min 766 W/m 6,4 km/h (2 Bft) 100,00 %
06.09.2023 14:34 30,3 C 34,4 C 23,3 C 48 % 1020,0 hPa 0,0 l/m 2 min 0 min 754 W/m 6,4 km/h (2 Bft) 100,00 %
06.09.2023 14:36 30,3 C 33,3 C 23,9 C 47 % 1020,0 hPa 0,0 l/m 2 min 0 min 758 W/m 12,9 km/h (3 Bft) 100,00 %
06.09.2023 14:38 30,4 C 32,2 C 23,9 C 48 % 1020,0 hPa 0,0 l/m 2 min 0 min 759 W/m 9,7 km/h (2 Bft) 95,74 %
06.09.2023 14:40 30,4 C 31,7 C 23,9 C 47 % 1020,0 hPa 0,0 l/m 2 min 0 min 758 W/m 9,7 km/h (2 Bft) 100,00 %
06.09.2023 14:42 30,5 C 31,1 C 23,9 C 47 % 1020,0 hPa 0,0 l/m 2 min 0 min 739 W/m 9,7 km/h (2 Bft) 100,00 %
06.09.2023 14:44 30,5 C 30,6 C 23,3 C 47 % 1019,9 hPa 0,0 l/m 2 min 0 min 734 W/m 6,4 km/h (2 Bft) 97,87 %
06.09.2023 14:46 30,5 C 30,6 C 23,3 C 47 % 1019,9 hPa 0,0 l/m 2 min 0 min 707 W/m 9,7 km/h (2 Bft) 97,83 %
06.09.2023 14:48 30,5 C 31,1 C 23,9 C 47 % 1019,9 hPa 0,0 l/m 2 min 0 min 721 W/m 12,9 km/h (3 Bft) 97,87 %
06.09.2023 14:50 30,5 C 32,2 C 23,9 C 47 % 1019,9 hPa 0,0 l/m 2 min 0 min 744 W/m 6,4 km/h (2 Bft) 97,87 %
06.09.2023 14:52 30,6 C 32,8 C 23,9 C 47 % 1019,9 hPa 0,0 l/m 2 min 0 min 751 W/m 6,4 km/h (2 Bft) 97,87 %
06.09.2023 14:54 30,6 C 32,8 C 23,9 C 47 % 1019,9 hPa 0,0 l/m 2 min 0 min 736 W/m 6,4 km/h (2 Bft) 95,74 %
06.09.2023 14:56 30,7 C 32,2 C 23,9 C 47 % 1019,9 hPa 0,0 l/m 2 min 0 min 699 W/m 12,9 km/h (3 Bft) 97,87 %
06.09.2023 14:58 30,7 C 31,1 C 23,9 C 48 % 1019,9 hPa 0,0 l/m 2 min 0 min 726 W/m 9,7 km/h (2 Bft) 93,48 %
06.09.2023 15:00 30,7 C 31,1 C 23,9 C 47 % 1020,0 hPa 0,0 l/m 2 min 0 min 738 W/m 12,9 km/h (3 Bft) 97,87 %
06.09.2023 15:02 30,8 C 30,6 C 23,9 C 47 % 1019,9 hPa 0,0 l/m 2 min 0 min 737 W/m 6,4 km/h (2 Bft) 95,74 %
06.09.2023 15:04 30,8 C 30,6 C 23,9 C 46 % 1019,9 hPa 0,0 l/m 2 min 0 min 734 W/m 6,4 km/h (2 Bft) 95,83 %
06.09.2023 15:06 30,8 C 30,6 C 23,9 C 47 % 1019,9 hPa 0,0 l/m 2 min 0 min 729 W/m 9,7 km/h (2 Bft) 94,92 %
06.09.2023 15:08 30,8 C 30,6 C 23,9 C 47 % 1019,8 hPa 0,0 l/m 2 min 0 min 726 W/m 9,7 km/h (2 Bft) 94,29 %
06.09.2023 15:10 30,8 C 30,6 C 23,9 C 48 % 1019,9 hPa 0,0 l/m 2 min 0 min 725 W/m 6,4 km/h (2 Bft) 95,74 %
06.09.2023 15:12 30,8 C 30,0 C 23,9 C 47 % 1019,9 hPa 0,0 l/m 2 min 0 min 722 W/m 6,4 km/h (2 Bft) 93,48 %
06.09.2023 15:14 30,8 C 30,0 C 23,9 C 47 % 1019,8 hPa 0,0 l/m 2 min 0 min 719 W/m 6,4 km/h (2 Bft) 93,62 %
06.09.2023 15:16 30,9 C 30,0 C 23,9 C 47 % 1019,8 hPa 0,0 l/m 2 min 0 min 718 W/m 6,4 km/h (2 Bft) 91,49 %
06.09.2023 15:18 30,9 C 30,0 C 23,9 C 47 % 1019,8 hPa 0,0 l/m 2 min 0 min 715 W/m 12,9 km/h (3 Bft) 93,62 %
06.09.2023 15:20 30,9 C 30,0 C 23,9 C 46 % 1019,7 hPa 0,0 l/m 2 min 0 min 712 W/m 9,7 km/h (2 Bft) 93,62 %
06.09.2023 15:22 30,9 C 29,4 C 23,9 C 45 % 1019,7 hPa 0,0 l/m 2 min 0 min 708 W/m 6,4 km/h (2 Bft) 93,62 %
06.09.2023 15:24 30,9 C 30,0 C 23,9 C 46 % 1019,7 hPa 0,0 l/m 2 min 0 min 707 W/m 9,7 km/h (2 Bft) 91,49 %
06.09.2023 15:26 30,9 C 30,0 C 23,9 C 47 % 1019,7 hPa 0,0 l/m 2 min 0 min 705 W/m 12,9 km/h (3 Bft) 93,48 %
06.09.2023 15:28 30,9 C 30,0 C 24,4 C 46 % 1019,7 hPa 0,0 l/m 2 min 0 min 702 W/m 9,7 km/h (2 Bft) 95,74 %
06.09.2023 15:30 30,9 C 30,0 C 23,9 C 47 % 1019,7 hPa 0,0 l/m 2 min 0 min 689 W/m 6,4 km/h (2 Bft) 93,62 %
06.09.2023 15:32 30,9 C 30,0 C 24,4 C 47 % 1019,7 hPa 0,0 l/m 2 min 0 min 649 W/m 9,7 km/h (2 Bft) 93,62 %
06.09.2023 15:34 31,0 C 30,0 C 23,9 C 46 % 1019,7 hPa 0,0 l/m 2 min 0 min 638 W/m 16,1 km/h (3 Bft) 95,74 %
06.09.2023 15:36 31,0 C 30,0 C 23,9 C 46 % 1019,7 hPa 0,0 l/m 2 min 0 min 631 W/m 6,4 km/h (2 Bft) 93,62 %
06.09.2023 15:38 31,1 C 30,0 C 23,9 C 45 % 1019,6 hPa 0,0 l/m 2 min 0 min 673 W/m 12,9 km/h (3 Bft) 95,74 %
06.09.2023 15:40 31,1 C 30,0 C 24,4 C 47 % 1019,6 hPa 0,0 l/m 2 min 0 min 687 W/m 9,7 km/h (2 Bft) 93,48 %
06.09.2023 15:42 31,1 C 30,0 C 23,9 C 46 % 1019,5 hPa 0,0 l/m 2 min 0 min 675 W/m 6,4 km/h (2 Bft) 95,74 %
06.09.2023 15:44 31,1 C 30,0 C 23,9 C 47 % 1019,6 hPa 0,0 l/m 2 min 0 min 669 W/m 12,9 km/h (3 Bft) 95,74 %
06.09.2023 15:46 31,1 C 30,6 C 24,4 C 45 % 1019,5 hPa 0,0 l/m 2 min 0 min 651 W/m 12,9 km/h (3 Bft) 93,62 %
06.09.2023 15:48 31,1 C 30,6 C 24,4 C 46 % 1019,5 hPa 0,0 l/m 2 min 0 min 642 W/m 9,7 km/h (2 Bft) 97,87 %
06.09.2023 15:50 31,2 C 30,6 C 24,4 C 45 % 1019,5 hPa 0,0 l/m 2 min 0 min 655 W/m 6,4 km/h (2 Bft) 97,87 %
06.09.2023 15:52 31,2 C 30,6 C 24,4 C 46 % 1019,5 hPa 0,0 l/m 2 min 0 min 657 W/m 9,7 km/h (2 Bft) 95,74 %
06.09.2023 15:54 31,2 C 31,1 C 24,4 C 46 % 1019,6 hPa 0,0 l/m 2 min 0 min 656 W/m 6,4 km/h (2 Bft) 95,65 %
06.09.2023 15:56 31,2 C 31,1 C 24,4 C 46 % 1019,6 hPa 0,0 l/m 2 min 0 min 648 W/m 9,7 km/h (2 Bft) 97,87 %
06.09.2023 15:58 31,3 C 30,6 C 24,4 C 47 % 1019,5 hPa 0,0 l/m 2 min 0 min 644 W/m 6,4 km/h (2 Bft) 97,87 %
06.09.2023 16:00 31,2 C 30,6 C 24,4 C 47 % 1019,6 hPa 0,0 l/m 2 min 0 min 640 W/m 12,9 km/h (3 Bft) 100,00 %
06.09.2023 16:02 31,2 C 30,0 C 24,4 C 47 % 1019,6 hPa 0,0 l/m 2 min 0 min 636 W/m 9,7 km/h (2 Bft) 100,00 %
06.09.2023 16:04 31,2 C 30,0 C 24,4 C 48 % 1019,6 hPa 0,0 l/m 2 min 0 min 630 W/m 12,9 km/h (3 Bft) 97,62 %
06.09.2023 16:06 31,3 C 30,0 C 24,4 C 49 % 1019,5 hPa 0,0 l/m 2 min 0 min 625 W/m 6,4 km/h (2 Bft) 100,00 %
06.09.2023 16:08 31,3 C 30,0 C 24,4 C 48 % 1019,5 hPa 0,0 l/m 2 min 0 min 617 W/m 16,1 km/h (3 Bft) 100,00 %
06.09.2023 16:10 31,3 C 30,0 C 24,4 C 48 % 1019,5 hPa 0,0 l/m 2 min 0 min 601 W/m 12,9 km/h (3 Bft) 100,00 %
06.09.2023 16:12 31,3 C 30,0 C 24,4 C 47 % 1019,6 hPa 0,0 l/m 2 min 0 min 598 W/m 6,4 km/h (2 Bft) 95,74 %
06.09.2023 16:14 31,3 C 30,0 C 24,4 C 48 % 1019,5 hPa 0,0 l/m 2 min 0 min 588 W/m 6,4 km/h (2 Bft) 97,87 %
06.09.2023 16:16 31,3 C 30,0 C 24,4 C 48 % 1019,5 hPa 0,0 l/m 2 min 0 min 582 W/m 6,4 km/h (2 Bft) 100,00 %
06.09.2023 16:18 31,3 C 30,0 C 24,4 C 49 % 1019,5 hPa 0,0 l/m 2 min 0 min 591 W/m 6,4 km/h (2 Bft) 97,87 %
06.09.2023 16:20 31,3 C 30,0 C 24,4 C 48 % 1019,4 hPa 0,0 l/m 2 min 0 min 591 W/m 12,9 km/h (3 Bft) 100,00 %
06.09.2023 16:22 31,3 C 30,0 C 24,4 C 48 % 1019,4 hPa 0,0 l/m 2 min 0 min 587 W/m 6,4 km/h (2 Bft) 100,00 %
06.09.2023 16:24 31,3 C 30,0 C 24,4 C 48 % 1019,4 hPa 0,0 l/m 2 min 0 min 583 W/m 9,7 km/h (2 Bft) 100,00 %
06.09.2023 16:26 31,3 C 30,0 C 24,4 C 50 % 1019,4 hPa 0,0 l/m 2 min 0 min 577 W/m 6,4 km/h (2 Bft) 97,87 %
06.09.2023 16:28 31,4 C 30,0 C 24,4 C 50 % 1019,4 hPa 0,0 l/m 2 min 0 min 573 W/m 6,4 km/h (2 Bft) 97,87 %
06.09.2023 16:30 31,3 C 30,0 C 24,4 C 49 % 1019,4 hPa 0,0 l/m 2 min 0 min 567 W/m 6,4 km/h (2 Bft) 97,87 %
06.09.2023 16:32 31,3 C 30,0 C 24,4 C 49 % 1019,3 hPa 0,0 l/m 2 min 0 min 562 W/m 6,4 km/h (2 Bft) 95,74 %
06.09.2023 16:34 31,4 C 30,0 C 24,4 C 50 % 1019,3 hPa 0,0 l/m 2 min 0 min 559 W/m 6,4 km/h (2 Bft) 97,87 %
06.09.2023 16:36 31,4 C 30,0 C 24,4 C 50 % 1019,4 hPa 0,0 l/m 2 min 0 min 555 W/m 6,4 km/h (2 Bft) 97,87 %
06.09.2023 16:38 31,4 C 30,6 C 24,4 C 49 % 1019,3 hPa 0,0 l/m 2 min 0 min 550 W/m 6,4 km/h (2 Bft) 97,83 %
06.09.2023 16:40 31,4 C 31,7 C 24,4 C 49 % 1019,3 hPa 0,0 l/m 2 min 0 min 546 W/m 6,4 km/h (2 Bft) 97,87 %
06.09.2023 16:42 31,4 C 32,2 C 24,4 C 49 % 1019,3 hPa 0,0 l/m 2 min 0 min 544 W/m 3,2 km/h (1 Bft) 97,87 %
06.09.2023 16:44 31,5 C 32,2 C 24,4 C 48 % 1019,3 hPa 0,0 l/m 2 min 0 min 539 W/m 6,4 km/h (2 Bft) 97,87 %
06.09.2023 16:46 31,5 C 32,8 C 24,4 C 49 % 1019,3 hPa 0,0 l/m 2 min 0 min 531 W/m 6,4 km/h (2 Bft) 97,87 %
06.09.2023 16:48 31,4 C 32,8 C 25,0 C 48 % 1019,3 hPa 0,0 l/m 2 min 0 min 524 W/m 6,4 km/h (2 Bft) 97,87 %
06.09.2023 16:50 31,4 C 32,2 C 25,0 C 49 % 1019,3 hPa 0,0 l/m 2 min 0 min 520 W/m 9,7 km/h (2 Bft) 100,00 %
06.09.2023 16:52 31,4 C 31,7 C 25,0 C 48 % 1019,3 hPa 0,0 l/m 2 min 0 min 518 W/m 9,7 km/h (2 Bft) 100,00 %
06.09.2023 16:54 31,4 C 31,1 C 25,0 C 49 % 1019,3 hPa 0,0 l/m 2 min 0 min 512 W/m 6,4 km/h (2 Bft) 100,00 %
06.09.2023 16:56 31,4 C 31,7 C 25,0 C 49 % 1019,2 hPa 0,0 l/m 2 min 0 min 505 W/m 6,4 km/h (2 Bft) 100,00 %
06.09.2023 16:58 31,5 C 32,2 C 25,0 C 49 % 1019,2 hPa 0,0 l/m 2 min 0 min 499 W/m 6,4 km/h (2 Bft) 95,74 %
06.09.2023 17:00 31,5 C 32,8 C 25,0 C 49 % 1019,2 hPa 0,0 l/m 2 min 0 min 494 W/m 6,4 km/h (2 Bft) 100,00 %
06.09.2023 17:02 31,5 C 32,8 C 25,6 C 48 % 1019,2 hPa 0,0 l/m 2 min 0 min 490 W/m 16,1 km/h (3 Bft) 100,00 %
06.09.2023 17:04 31,5 C 32,2 C 25,0 C 47 % 1019,2 hPa 0,0 l/m 2 min 0 min 486 W/m 12,9 km/h (3 Bft) 100,00 %
06.09.2023 17:06 31,5 C 31,7 C 25,0 C 48 % 1019,2 hPa 0,0 l/m 2 min 0 min 481 W/m 6,4 km/h (2 Bft) 100,00 %
06.09.2023 17:08 31,5 C 31,7 C 25,6 C 47 % 1019,2 hPa 0,0 l/m 2 min 0 min 475 W/m 6,4 km/h (2 Bft) 100,00 %
06.09.2023 17:10 31,5 C 31,7 C 25,6 C 49 % 1019,2 hPa 0,0 l/m 2 min 0 min 470 W/m 9,7 km/h (2 Bft) 100,00 %
06.09.2023 17:12 31,5 C 31,1 C 25,6 C 48 % 1019,2 hPa 0,0 l/m 2 min 0 min 464 W/m 6,4 km/h (2 Bft) 100,00 %
06.09.2023 17:14 31,4 C 31,1 C 26,1 C 47 % 1019,2 hPa 0,0 l/m 2 min 0 min 458 W/m 12,9 km/h (3 Bft) 100,00 %
06.09.2023 17:16 31,4 C 31,1 C 25,6 C 48 % 1019,2 hPa 0,0 l/m 2 min 0 min 452 W/m 6,4 km/h (2 Bft) 100,00 %
06.09.2023 17:18 31,4 C 31,7 C 26,1 C 48 % 1019,2 hPa 0,0 l/m 2 min 0 min 446 W/m 6,4 km/h (2 Bft) 100,00 %
06.09.2023 17:20 31,4 C 32,8 C 25,6 C 49 % 1019,2 hPa 0,0 l/m 2 min 0 min 439 W/m 3,2 km/h (1 Bft) 100,00 %
06.09.2023 17:22 31,4 C 32,8 C 25,6 C 48 % 1019,2 hPa 0,0 l/m 2 min 0 min 433 W/m 3,2 km/h (1 Bft) 97,87 %
06.09.2023 17:24 31,5 C 33,3 C 26,1 C 49 % 1019,1 hPa 0,0 l/m 2 min 0 min 430 W/m 6,4 km/h (2 Bft) 100,00 %
06.09.2023 17:26 31,6 C 33,9 C 25,6 C 47 % 1019,2 hPa 0,0 l/m 2 min 0 min 424 W/m 6,4 km/h (2 Bft) 100,00 %
06.09.2023 17:28 31,6 C 34,4 C 25,6 C 47 % 1019,1 hPa 0,0 l/m 2 min 0 min 419 W/m 9,7 km/h (2 Bft) 100,00 %
06.09.2023 17:30 31,6 C 34,4 C 25,6 C 48 % 1019,1 hPa 0,0 l/m 2 min 0 min 412 W/m 6,4 km/h (2 Bft) 100,00 %
06.09.2023 17:32 31,6 C 35,0 C 25,6 C 48 % 1019,1 hPa 0,0 l/m 2 min 0 min 408 W/m 6,4 km/h (2 Bft) 100,00 %
06.09.2023 17:34 31,6 C 35,0 C 25,6 C 47 % 1019,1 hPa 0,0 l/m 2 min 0 min 402 W/m 6,4 km/h (2 Bft) 100,00 %
06.09.2023 17:36 31,7 C 35,0 C 25,6 C 48 % 1019,2 hPa 0,0 l/m 2 min 0 min 396 W/m 6,4 km/h (2 Bft) 97,87 %
06.09.2023 17:38 31,7 C 35,0 C 25,6 C 48 % 1019,1 hPa 0,0 l/m 2 min 0 min 390 W/m 6,4 km/h (2 Bft) 100,00 %
06.09.2023 17:40 31,7 C 35,0 C 26,1 C 48 % 1019,1 hPa 0,0 l/m 2 min 0 min 382 W/m 9,7 km/h (2 Bft) 100,00 %
06.09.2023 17:42 31,8 C 35,0 C 26,1 C 48 % 1019,1 hPa 0,0 l/m 2 min 0 min 376 W/m 6,4 km/h (2 Bft) 97,87 %
06.09.2023 17:44 31,8 C 35,0 C 26,1 C 48 % 1019,1 hPa 0,0 l/m 2 min 0 min 371 W/m 6,4 km/h (2 Bft) 96,00 %
06.09.2023 17:46 31,8 C 35,0 C 26,1 C 48 % 1019,1 hPa 0,0 l/m 2 min 0 min 367 W/m 6,4 km/h (2 Bft) 100,00 %
06.09.2023 17:48 31,8 C 35,0 C 26,1 C 48 % 1019,1 hPa 0,0 l/m 2 min 0 min 360 W/m 3,2 km/h (1 Bft) 97,87 %
06.09.2023 17:50 31,8 C 35,0 C 26,1 C 47 % 1019,1 hPa 0,0 l/m 2 min 0 min 354 W/m 6,4 km/h (2 Bft) 97,87 %
06.09.2023 17:52 31,9 C 35,0 C 26,1 C 48 % 1019,1 hPa 0,0 l/m 2 min 0 min 329 W/m 6,4 km/h (2 Bft) 93,62 %
06.09.2023 17:54 31,9 C 35,0 C 26,1 C 48 % 1019,1 hPa 0,0 l/m 2 min 0 min 343 W/m 6,4 km/h (2 Bft) 97,87 %
06.09.2023 17:56 31,9 C 35,0 C 26,1 C 48 % 1019,1 hPa 0,0 l/m 2 min 0 min 332 W/m 6,4 km/h (2 Bft) 97,87 %
06.09.2023 17:58 32,0 C 35,0 C 26,1 C 48 % 1019,1 hPa 0,0 l/m 2 min 0 min 317 W/m 6,4 km/h (2 Bft) 97,87 %
06.09.2023 18:00 32,0 C 35,0 C 26,1 C 47 % 1019,1 hPa 0,0 l/m 2 min 0 min 325 W/m 6,4 km/h (2 Bft) 97,87 %
06.09.2023 18:02 31,9 C 35,0 C 26,1 C 47 % 1019,1 hPa 0,0 l/m 2 min 0 min 318 W/m 6,4 km/h (2 Bft) 95,65 %
06.09.2023 18:04 31,9 C 34,4 C 25,6 C 48 % 1019,1 hPa 0,0 l/m 2 min 0 min 311 W/m 3,2 km/h (1 Bft) 95,92 %
06.09.2023 18:08 31,9 C 34,4 C 25,6 C 48 % 1019,1 hPa 0,0 l/m 4 min 0 min 300 W/m 6,4 km/h (2 Bft) 96,43 %
06.09.2023 18:10 32,0 C 33,9 C 25,6 C 48 % 1019,0 hPa 0,0 l/m 2 min 0 min 284 W/m 6,4 km/h (2 Bft) 95,74 %
06.09.2023 18:12 32,0 C 33,3 C 25,6 C 48 % 1019,0 hPa 0,0 l/m 2 min 0 min 278 W/m 6,4 km/h (2 Bft) 93,62 %
06.09.2023 18:14 32,0 C 33,3 C 25,6 C 48 % 1019,1 hPa 0,0 l/m 2 min 0 min 273 W/m 3,2 km/h (1 Bft) 97,87 %
06.09.2023 18:16 32,0 C 33,3 C 25,6 C 50 % 1019,1 hPa 0,0 l/m 2 min 0 min 266 W/m 3,2 km/h (1 Bft) 97,87 %
06.09.2023 18:18 32,1 C 33,3 C 25,6 C 50 % 1019,1 hPa 0,0 l/m 2 min 0 min 257 W/m 3,2 km/h (1 Bft) 97,83 %
06.09.2023 18:20 32,1 C 33,9 C 25,6 C 49 % 1019,1 hPa 0,0 l/m 2 min 0 min 250 W/m 3,2 km/h (1 Bft) 97,87 %
06.09.2023 18:22 32,1 C 33,9 C 25,6 C 49 % 1019,0 hPa 0,0 l/m 2 min 0 min 244 W/m 3,2 km/h (1 Bft) 95,74 %
06.09.2023 18:24 32,0 C 34,4 C 25,6 C 49 % 1019,0 hPa 0,0 l/m 2 min 0 min 235 W/m 3,2 km/h (1 Bft) 97,87 %
06.09.2023 18:26 32,0 C 34,4 C 25,6 C 49 % 1019,1 hPa 0,0 l/m 2 min 0 min 226 W/m 3,2 km/h (1 Bft) 97,87 %
06.09.2023 18:28 31,9 C 35,0 C 25,0 C 49 % 1019,0 hPa 0,0 l/m 2 min 0 min 218 W/m 3,2 km/h (1 Bft) 97,87 %
06.09.2023 18:30 31,9 C 34,4 C 25,6 C 49 % 1019,0 hPa 0,0 l/m 2 min 0 min 211 W/m 6,4 km/h (2 Bft) 95,74 %
06.09.2023 18:32 31,9 C 34,4 C 25,6 C 49 % 1019,1 hPa 0,0 l/m 2 min 0 min 204 W/m 3,2 km/h (1 Bft) 95,65 %
06.09.2023 18:34 31,8 C 34,4 C 25,6 C 48 % 1019,1 hPa 0,0 l/m 2 min 0 min 196 W/m 3,2 km/h (1 Bft) 97,87 %
06.09.2023 18:36 31,8 C 34,4 C 25,0 C 49 % 1019,1 hPa 0,0 l/m 2 min 0 min 189 W/m 3,2 km/h (1 Bft) 100,00 %
06.09.2023 18:38 31,8 C 34,4 C 25,6 C 49 % 1019,1 hPa 0,0 l/m 2 min 0 min 183 W/m 6,4 km/h (2 Bft) 95,74 %
06.09.2023 18:40 31,8 C 34,4 C 25,6 C 49 % 1019,1 hPa 0,0 l/m 2 min 0 min 175 W/m 3,2 km/h (1 Bft) 95,74 %
06.09.2023 18:42 31,8 C 33,9 C 25,6 C 48 % 1019,2 hPa 0,0 l/m 2 min 0 min 169 W/m 3,2 km/h (1 Bft) 95,74 %
06.09.2023 18:44 31,8 C 33,9 C 25,6 C 49 % 1019,1 hPa 0,0 l/m 2 min 0 min 161 W/m 3,2 km/h (1 Bft) 95,74 %
06.09.2023 18:46 31,7 C 33,3 C 25,6 C 48 % 1019,1 hPa 0,0 l/m 2 min 0 min 154 W/m 3,2 km/h (1 Bft) 93,48 %
06.09.2023 18:48 31,7 C 32,2 C 25,6 C 49 % 1019,1 hPa 0,0 l/m 2 min 0 min 141 W/m 6,4 km/h (2 Bft) 95,74 %
06.09.2023 18:50 31,6 C 31,7 C 25,0 C 49 % 1019,1 hPa 0,0 l/m 0 min 0 min 73 W/m 3,2 km/h (1 Bft) 95,74 %
06.09.2023 18:52 31,6 C 31,1 C 25,0 C 50 % 1019,0 hPa 0,0 l/m 0 min 0 min 39 W/m 3,2 km/h (1 Bft) 95,74 %
06.09.2023 18:54 31,6 C 30,6 C 25,0 C 49 % 1019,0 hPa 0,0 l/m 0 min 0 min 39 W/m 3,2 km/h (1 Bft) 91,49 %
06.09.2023 18:56 31,5 C 30,0 C 24,4 C 49 % 1019,0 hPa 0,0 l/m 0 min 0 min 37 W/m 3,2 km/h (1 Bft) 95,74 %
06.09.2023 18:58 31,4 C 30,0 C 24,4 C 50 % 1019,0 hPa 0,0 l/m 0 min 0 min 37 W/m 3,2 km/h (1 Bft) 95,74 %
06.09.2023 19:00 31,3 C 29,4 C 24,4 C 50 % 1019,0 hPa 0,0 l/m 0 min 0 min 36 W/m 3,2 km/h (1 Bft) 95,74 %
06.09.2023 19:02 31,2 C 29,4 C 23,9 C 51 % 1019,0 hPa 0,0 l/m 0 min 0 min 35 W/m 3,2 km/h (1 Bft) 93,48 %
06.09.2023 19:04 31,1 C 28,9 C 23,9 C 53 % 1018,9 hPa 0,0 l/m 0 min 0 min 35 W/m 0,0 km/h (0 Bft) 94,12 %
06.09.2023 19:06 30,9 C 28,3 C 23,3 C 54 % 1018,9 hPa 0,0 l/m 0 min 0 min 33 W/m 3,2 km/h (1 Bft) 96,61 %
06.09.2023 19:08 30,9 C 28,3 C 22,8 C 55 % 1018,9 hPa 0,0 l/m 0 min 0 min 33 W/m 0,0 km/h (0 Bft) 94,29 %
06.09.2023 19:10 30,8 C 27,8 C 22,8 C 55 % 1018,9 hPa 0,0 l/m 0 min 0 min 32 W/m 0,0 km/h (0 Bft) 95,74 %
06.09.2023 19:12 30,6 C 27,8 C 22,8 C 56 % 1018,9 hPa 0,0 l/m 0 min 0 min 32 W/m 0,0 km/h (0 Bft) 95,74 %
06.09.2023 19:14 30,4 C 27,2 C 22,2 C 57 % 1018,9 hPa 0,0 l/m 0 min 0 min 30 W/m 0,0 km/h (0 Bft) 95,65 %
06.09.2023 19:16 30,3 C 27,2 C 22,2 C 56 % 1018,9 hPa 0,0 l/m 0 min 0 min 30 W/m 0,0 km/h (0 Bft) 100,00 %
06.09.2023 19:18 30,2 C 27,2 C 21,7 C 58 % 1018,9 hPa 0,0 l/m 0 min 0 min 28 W/m 0,0 km/h (0 Bft) 91,49 %
06.09.2023 19:20 30,1 C 26,7 C 21,7 C 58 % 1018,9 hPa 0,0 l/m 0 min 0 min 26 W/m 0,0 km/h (0 Bft) 97,87 %
06.09.2023 19:22 29,9 C 26,7 C 21,7 C 59 % 1018,9 hPa 0,0 l/m 0 min 0 min 26 W/m 3,2 km/h (1 Bft) 100,00 %
06.09.2023 19:24 29,7 C 26,1 C 21,7 C 59 % 1018,9 hPa 0,0 l/m 0 min 0 min 25 W/m 0,0 km/h (0 Bft) 97,87 %
06.09.2023 19:26 29,6 C 26,1 C 21,1 C 60 % 1018,9 hPa 0,0 l/m 0 min 0 min 23 W/m 3,2 km/h (1 Bft) 97,87 %
06.09.2023 19:28 29,3 C 26,1 C 21,1 C 61 % 1018,9 hPa 0,0 l/m 0 min 0 min 21 W/m 0,0 km/h (0 Bft) 97,83 %
06.09.2023 19:30 29,2 C 26,1 C 21,1 C 62 % 1018,9 hPa 0,0 l/m 0 min 0 min 19 W/m 0,0 km/h (0 Bft) 95,74 %
06.09.2023 19:32 29,1 C 25,6 C 21,1 C 62 % 1018,9 hPa 0,0 l/m 0 min 0 min 18 W/m 0,0 km/h (0 Bft) 95,74 %
06.09.2023 19:34 28,9 C 25,6 C 20,6 C 63 % 1018,9 hPa 0,0 l/m 0 min 0 min 18 W/m 0,0 km/h (0 Bft) 100,00 %
06.09.2023 19:36 28,8 C 25,6 C 20,6 C 63 % 1018,9 hPa 0,0 l/m 0 min 0 min 17 W/m 0,0 km/h (0 Bft) 97,87 %
06.09.2023 19:38 28,7 C 25,0 C 20,6 C 64 % 1019,0 hPa 0,0 l/m 0 min 0 min 16 W/m 0,0 km/h (0 Bft) 93,62 %
06.09.2023 19:40 28,5 C 25,0 C 20,6 C 65 % 1019,0 hPa 0,0 l/m 0 min 0 min 16 W/m 0,0 km/h (0 Bft) 95,74 %
06.09.2023 19:42 28,3 C 25,0 C 20,6 C 65 % 1019,0 hPa 0,0 l/m 0 min 0 min 14 W/m 0,0 km/h (0 Bft) 97,83 %
06.09.2023 19:44 28,2 C 25,0 C 20,0 C 66 % 1019,0 hPa 0,0 l/m 0 min 0 min 14 W/m 0,0 km/h (0 Bft) 97,87 %
06.09.2023 19:46 28,1 C 25,0 C 20,0 C 66 % 1018,9 hPa 0,0 l/m 0 min 0 min 13 W/m 0,0 km/h (0 Bft) 97,87 %
06.09.2023 19:48 27,9 C 24,4 C 20,0 C 66 % 1019,0 hPa 0,0 l/m 0 min 0 min 12 W/m 0,0 km/h (0 Bft) 97,87 %
06.09.2023 19:50 27,8 C 24,4 C 20,0 C 67 % 1019,0 hPa 0,0 l/m 0 min 0 min 11 W/m 0,0 km/h (0 Bft) 97,87 %
06.09.2023 19:52 27,7 C 24,4 C 19,4 C 67 % 1019,0 hPa 0,0 l/m 0 min 0 min 11 W/m 0,0 km/h (0 Bft) 97,87 %
06.09.2023 19:54 27,5 C 23,9 C 19,4 C 67 % 1019,0 hPa 0,0 l/m 0 min 0 min 10 W/m 0,0 km/h (0 Bft) 97,87 %
06.09.2023 19:56 27,4 C 23,9 C 19,4 C 67 % 1019,0 hPa 0,0 l/m 0 min 0 min 9 W/m 0,0 km/h (0 Bft) 97,83 %
06.09.2023 19:58 27,3 C 23,9 C 19,4 C 67 % 1019,0 hPa 0,0 l/m 0 min 0 min 9 W/m 3,2 km/h (1 Bft) 97,87 %
06.09.2023 20:00 27,2 C 23,9 C 18,9 C 67 % 1019,1 hPa 0,0 l/m 0 min 0 min 7 W/m 0,0 km/h (0 Bft) 100,00 %
06.09.2023 20:02 27,1 C 23,9 C 18,9 C 67 % 1019,1 hPa 0,0 l/m 0 min 0 min 7 W/m 0,0 km/h (0 Bft) 97,87 %
06.09.2023 20:04 26,9 C 23,9 C 18,9 C 67 % 1019,0 hPa 0,0 l/m 0 min 0 min 6 W/m 0,0 km/h (0 Bft) 100,00 %
06.09.2023 20:06 26,8 C 23,9 C 18,9 C 68 % 1019,0 hPa 0,0 l/m 0 min 0 min 5 W/m 0,0 km/h (0 Bft) 100,00 %
06.09.2023 20:08 26,7 C 23,3 C 18,9 C 67 % 1019,0 hPa 0,0 l/m 0 min 0 min 5 W/m 0,0 km/h (0 Bft) 100,00 %
06.09.2023 20:10 26,6 C 23,3 C 18,9 C 68 % 1019,0 hPa 0,0 l/m 0 min 0 min 4 W/m 0,0 km/h (0 Bft) 100,00 %
06.09.2023 20:12 26,5 C 23,3 C 18,9 C 68 % 1019,0 hPa 0,0 l/m 0 min 0 min 0 W/m 0,0 km/h (0 Bft) 100,00 %
06.09.2023 20:14 26,3 C 23,3 C 18,9 C 68 % 1019,1 hPa 0,0 l/m 0 min 0 min 0 W/m 0,0 km/h (0 Bft) 97,87 %
06.09.2023 20:16 26,2 C 23,3 C 18,9 C 69 % 1019,1 hPa 0,0 l/m 0 min 0 min 0 W/m 0,0 km/h (0 Bft) 100,00 %
06.09.2023 20:18 26,2 C 23,3 C 18,9 C 69 % 1019,1 hPa 0,0 l/m 0 min 0 min 0 W/m 0,0 km/h (0 Bft) 100,00 %
06.09.2023 20:20 26,1 C 23,3 C 18,9 C 69 % 1019,1 hPa 0,0 l/m 0 min 0 min 0 W/m 0,0 km/h (0 Bft) 100,00 %
06.09.2023 20:22 26,0 C 23,3 C 18,3 C 70 % 1019,1 hPa 0,0 l/m 0 min 0 min 0 W/m 0,0 km/h (0 Bft) 100,00 %
06.09.2023 20:24 25,9 C 22,8 C 18,3 C 70 % 1019,1 hPa 0,0 l/m 0 min 0 min 0 W/m 0,0 km/h (0 Bft) 100,00 %
06.09.2023 20:26 25,9 C 22,8 C 18,3 C 71 % 1019,1 hPa 0,0 l/m 0 min 0 min 0 W/m 0,0 km/h (0 Bft) 100,00 %
06.09.2023 20:28 25,8 C 22,8 C 18,3 C 71 % 1019,2 hPa 0,0 l/m 0 min 0 min 0 W/m 0,0 km/h (0 Bft) 100,00 %
06.09.2023 20:30 25,7 C 22,8 C 18,3 C 70 % 1019,2 hPa 0,0 l/m 0 min 0 min 0 W/m 0,0 km/h (0 Bft) 100,00 %
06.09.2023 20:32 25,6 C 22,8 C 18,3 C 70 % 1019,2 hPa 0,0 l/m 0 min 0 min 0 W/m 0,0 km/h (0 Bft) 100,00 %
06.09.2023 20:34 25,5 C 22,8 C 18,3 C 70 % 1019,2 hPa 0,0 l/m 0 min 0 min 0 W/m 0,0 km/h (0 Bft) 100,00 %
06.09.2023 20:36 25,4 C 22,2 C 18,3 C 71 % 1019,2 hPa 0,0 l/m 0 min 0 min 0 W/m 0,0 km/h (0 Bft) 100,00 %
06.09.2023 20:38 25,3 C 22,2 C 17,8 C 71 % 1019,2 hPa 0,0 l/m 0 min 0 min 0 W/m 0,0 km/h (0 Bft) 100,00 %
06.09.2023 20:40 25,2 C 22,2 C 17,8 C 71 % 1019,2 hPa 0,0 l/m 0 min 0 min 0 W/m 0,0 km/h (0 Bft) 100,00 %
06.09.2023 20:42 25,2 C 22,2 C 17,8 C 71 % 1019,3 hPa 0,0 l/m 0 min 0 min 0 W/m 0,0 km/h (0 Bft) 97,87 %
06.09.2023 20:44 25,1 C 22,2 C 17,8 C 71 % 1019,3 hPa 0,0 l/m 0 min 0 min 0 W/m 0,0 km/h (0 Bft) 100,00 %
06.09.2023 20:46 25,1 C 22,2 C 17,8 C 72 % 1019,3 hPa 0,0 l/m 0 min 0 min 0 W/m 0,0 km/h (0 Bft) 97,87 %
06.09.2023 20:48 24,9 C 22,2 C 17,8 C 73 % 1019,3 hPa 0,0 l/m 0 min 0 min 0 W/m 0,0 km/h (0 Bft) 100,00 %
06.09.2023 20:50 24,8 C 22,2 C 17,8 C 73 % 1019,3 hPa 0,0 l/m 0 min 0 min 0 W/m 0,0 km/h (0 Bft) 100,00 %
06.09.2023 20:52 24,8 C 21,7 C 17,8 C 73 % 1019,3 hPa 0,0 l/m 0 min 0 min 0 W/m 0,0 km/h (0 Bft) 97,83 %
06.09.2023 20:54 24,7 C 21,7 C 17,8 C 73 % 1019,3 hPa 0,0 l/m 0 min 0 min 0 W/m 0,0 km/h (0 Bft) 100,00 %
06.09.2023 20:56 24,6 C 21,7 C 17,8 C 74 % 1019,4 hPa 0,0 l/m 0 min 0 min 0 W/m 0,0 km/h (0 Bft) 100,00 %
06.09.2023 20:58 24,6 C 21,7 C 17,8 C 74 % 1019,4 hPa 0,0 l/m 0 min 0 min 0 W/m 0,0 km/h (0 Bft) 100,00 %
06.09.2023 21:00 24,4 C 21,7 C 17,2 C 74 % 1019,4 hPa 0,0 l/m 0 min 0 min 0 W/m 0,0 km/h (0 Bft) 97,87 %
06.09.2023 21:02 24,4 C 21,7 C 17,2 C 74 % 1019,4 hPa 0,0 l/m 0 min 0 min 0 W/m 0,0 km/h (0 Bft) 97,87 %
06.09.2023 21:04 24,3 C 21,7 C 17,2 C 74 % 1019,4 hPa 0,0 l/m 0 min 0 min 0 W/m 0,0 km/h (0 Bft) 100,00 %
06.09.2023 21:06 24,2 C 21,7 C 17,2 C 74 % 1019,4 hPa 0,0 l/m 0 min 0 min 0 W/m 0,0 km/h (0 Bft) 98,31 %
06.09.2023 21:08 24,2 C 21,7 C 17,2 C 74 % 1019,5 hPa 0,0 l/m 0 min 0 min 0 W/m 0,0 km/h (0 Bft) 97,22 %
06.09.2023 21:10 24,1 C 21,7 C 17,2 C 75 % 1019,5 hPa 0,0 l/m 0 min 0 min 0 W/m 0,0 km/h (0 Bft) 100,00 %
06.09.2023 21:12 24,1 C 21,7 C 17,2 C 75 % 1019,6 hPa 0,0 l/m 0 min 0 min 0 W/m 0,0 km/h (0 Bft) 100,00 %
06.09.2023 21:14 24,0 C 21,1 C 17,2 C 75 % 1019,6 hPa 0,0 l/m 0 min 0 min 0 W/m 0,0 km/h (0 Bft) 100,00 %
06.09.2023 21:16 23,8 C 21,1 C 17,2 C 75 % 1019,6 hPa 0,0 l/m 0 min 0 min 0 W/m 0,0 km/h (0 Bft) 97,87 %
06.09.2023 21:18 23,8 C 21,1 C 17,2 C 76 % 1019,6 hPa 0,0 l/m 0 min 0 min 0 W/m 0,0 km/h (0 Bft) 93,62 %
06.09.2023 21:20 23,7 C 21,1 C 17,2 C 76 % 1019,6 hPa 0,0 l/m 0 min 0 min 0 W/m 0,0 km/h (0 Bft) 97,87 %
06.09.2023 21:22 23,6 C 21,1 C 17,2 C 76 % 1019,7 hPa 0,0 l/m 0 min 0 min 0 W/m 0,0 km/h (0 Bft) 95,65 %
06.09.2023 21:24 23,6 C 21,1 C 17,2 C 76 % 1019,7 hPa 0,0 l/m 0 min 0 min 0 W/m 0,0 km/h (0 Bft) 93,62 %
06.09.2023 21:26 23,5 C 21,1 C 16,7 C 77 % 1019,7 hPa 0,0 l/m 0 min 0 min 0 W/m 0,0 km/h (0 Bft) 93,62 %
06.09.2023 21:28 23,4 C 21,1 C 16,7 C 78 % 1019,6 hPa 0,0 l/m 0 min 0 min 0 W/m 0,0 km/h (0 Bft) 95,74 %
06.09.2023 21:30 23,3 C 21,1 C 17,2 C 78 % 1019,7 hPa 0,0 l/m 0 min 0 min 0 W/m 0,0 km/h (0 Bft) 95,74 %
06.09.2023 21:32 23,3 C 21,1 C 17,2 C 78 % 1019,7 hPa 0,0 l/m 0 min 0 min 0 W/m 0,0 km/h (0 Bft) 95,74 %
06.09.2023 21:34 23,2 C 20,6 C 16,7 C 78 % 1019,7 hPa 0,0 l/m 0 min 0 min 0 W/m 0,0 km/h (0 Bft) 93,62 %
06.09.2023 21:36 23,1 C 20,6 C 16,7 C 78 % 1019,7 hPa 0,0 l/m 0 min 0 min 0 W/m 0,0 km/h (0 Bft) 91,30 %
06.09.2023 21:38 23,1 C 20,6 C 16,7 C 78 % 1019,7 hPa 0,0 l/m 0 min 0 min 0 W/m 0,0 km/h (0 Bft) 95,74 %
06.09.2023 21:40 23,0 C 20,6 C 16,7 C 78 % 1019,7 hPa 0,0 l/m 0 min 0 min 0 W/m 0,0 km/h (0 Bft) 91,49 %
06.09.2023 21:42 22,9 C 20,6 C 16,7 C 79 % 1019,7 hPa 0,0 l/m 0 min 0 min 0 W/m 0,0 km/h (0 Bft) 93,62 %
06.09.2023 21:44 22,9 C 20,6 C 16,7 C 79 % 1019,7 hPa 0,0 l/m 0 min 0 min 0 W/m 0,0 km/h (0 Bft) 93,62 %
06.09.2023 21:46 22,8 C 20,6 C 16,7 C 79 % 1019,7 hPa 0,0 l/m 0 min 0 min 0 W/m 0,0 km/h (0 Bft) 93,62 %
06.09.2023 21:48 22,8 C 20,6 C 16,7 C 80 % 1019,7 hPa 0,0 l/m 0 min 0 min 0 W/m 0,0 km/h (0 Bft) 95,65 %
06.09.2023 21:50 22,7 C 20,6 C 16,7 C 80 % 1019,7 hPa 0,0 l/m 0 min 0 min 0 W/m 0,0 km/h (0 Bft) 93,62 %
06.09.2023 21:52 22,7 C 20,6 C 16,7 C 80 % 1019,8 hPa 0,0 l/m 0 min 0 min 0 W/m 0,0 km/h (0 Bft) 93,62 %
06.09.2023 21:54 22,6 C 20,6 C 16,1 C 80 % 1019,8 hPa 0,0 l/m 0 min 0 min 0 W/m 0,0 km/h (0 Bft) 95,74 %
06.09.2023 21:56 22,6 C 20,0 C 16,1 C 80 % 1019,8 hPa 0,0 l/m 0 min 0 min 0 W/m 0,0 km/h (0 Bft) 95,74 %
06.09.2023 21:58 22,5 C 20,0 C 16,1 C 80 % 1019,7 hPa 0,0 l/m 0 min 0 min 0 W/m 0,0 km/h (0 Bft) 95,74 %
06.09.2023 22:00 22,4 C 20,0 C 16,1 C 80 % 1019,7 hPa 0,0 l/m 0 min 0 min 0 W/m 0,0 km/h (0 Bft) 93,62 %
06.09.2023 22:02 22,4 C 20,0 C 16,1 C 80 % 1019,7 hPa 0,0 l/m 0 min 0 min 0 W/m 0,0 km/h (0 Bft) 93,62 %
06.09.2023 22:04 22,3 C 20,0 C 16,1 C 80 % 1019,8 hPa 0,0 l/m 0 min 0 min 0 W/m 0,0 km/h (0 Bft) 92,86 %
06.09.2023 22:06 22,2 C 20,0 C 16,1 C 81 % 1019,8 hPa 0,0 l/m 0 min 0 min 0 W/m 0,0 km/h (0 Bft) 95,65 %
06.09.2023 22:08 22,2 C 20,0 C 16,1 C 81 % 1019,8 hPa 0,0 l/m 0 min 0 min 0 W/m 0,0 km/h (0 Bft) 95,74 %
06.09.2023 22:10 22,1 C 20,0 C 16,1 C 81 % 1019,8 hPa 0,0 l/m 0 min 0 min 0 W/m 0,0 km/h (0 Bft) 95,74 %
06.09.2023 22:12 22,1 C 20,0 C 16,1 C 81 % 1019,8 hPa 0,0 l/m 0 min 0 min 0 W/m 0,0 km/h (0 Bft) 93,62 %
06.09.2023 22:14 21,9 C 20,0 C 16,1 C 82 % 1019,8 hPa 0,0 l/m 0 min 0 min 0 W/m 0,0 km/h (0 Bft) 97,87 %
06.09.2023 22:16 21,9 C 20,0 C 16,1 C 82 % 1019,8 hPa 0,0 l/m 0 min 0 min 0 W/m 0,0 km/h (0 Bft) 95,74 %
06.09.2023 22:18 21,8 C 20,0 C 16,1 C 82 % 1019,9 hPa 0,0 l/m 0 min 0 min 0 W/m 0,0 km/h (0 Bft) 97,87 %
06.09.2023 22:20 21,8 C 20,0 C 16,1 C 82 % 1019,8 hPa 0,0 l/m 0 min 0 min 0 W/m 0,0 km/h (0 Bft) 97,83 %
06.09.2023 22:22 21,8 C 20,0 C 16,1 C 82 % 1019,8 hPa 0,0 l/m 0 min 0 min 0 W/m 0,0 km/h (0 Bft) 100,00 %
06.09.2023 22:24 21,7 C 20,0 C 16,1 C 82 % 1019,9 hPa 0,0 l/m 0 min 0 min 0 W/m 0,0 km/h (0 Bft) 100,00 %
06.09.2023 22:26 21,7 C 19,4 C 16,1 C 82 % 1019,9 hPa 0,0 l/m 0 min 0 min 0 W/m 0,0 km/h (0 Bft) 100,00 %
06.09.2023 22:28 21,6 C 19,4 C 16,1 C 82 % 1019,8 hPa 0,0 l/m 0 min 0 min 0 W/m 0,0 km/h (0 Bft) 100,00 %
06.09.2023 22:30 21,6 C 19,4 C 16,1 C 83 % 1019,9 hPa 0,0 l/m 0 min 0 min 0 W/m 0,0 km/h (0 Bft) 100,00 %
06.09.2023 22:32 21,5 C 19,4 C 16,1 C 83 % 1019,9 hPa 0,0 l/m 0 min 0 min 0 W/m 0,0 km/h (0 Bft) 100,00 %
06.09.2023 22:34 21,4 C 19,4 C 15,6 C 83 % 1019,9 hPa 0,0 l/m 0 min 0 min 0 W/m 0,0 km/h (0 Bft) 100,00 %
06.09.2023 22:36 21,4 C 19,4 C 15,6 C 83 % 1019,9 hPa 0,0 l/m 0 min 0 min 0 W/m 0,0 km/h (0 Bft) 100,00 %
06.09.2023 22:38 21,3 C 19,4 C 15,6 C 83 % 1019,9 hPa 0,0 l/m 0 min 0 min 0 W/m 0,0 km/h (0 Bft) 100,00 %
06.09.2023 22:40 21,3 C 19,4 C 15,6 C 84 % 1019,9 hPa 0,0 l/m 0 min 0 min 0 W/m 0,0 km/h (0 Bft) 100,00 %
06.09.2023 22:42 21,3 C 19,4 C 15,6 C 84 % 1019,9 hPa 0,0 l/m 0 min 0 min 0 W/m 0,0 km/h (0 Bft) 100,00 %
06.09.2023 22:44 21,2 C 19,4 C 15,6 C 84 % 1019,9 hPa 0,0 l/m 0 min 0 min 0 W/m 0,0 km/h (0 Bft) 100,00 %
06.09.2023 22:46 21,2 C 18,9 C 15,6 C 84 % 1019,9 hPa 0,0 l/m 0 min 0 min 0 W/m 0,0 km/h (0 Bft) 97,83 %
06.09.2023 22:48 21,1 C 19,4 C 15,6 C 85 % 1019,9 hPa 0,0 l/m 0 min 0 min 0 W/m 0,0 km/h (0 Bft) 100,00 %
06.09.2023 22:50 21,1 C 18,9 C 15,6 C 85 % 1019,9 hPa 0,0 l/m 0 min 0 min 0 W/m 0,0 km/h (0 Bft) 100,00 %
06.09.2023 22:52 21,1 C 18,9 C 15,6 C 85 % 1020,0 hPa 0,0 l/m 0 min 0 min 0 W/m 0,0 km/h (0 Bft) 97,87 %
06.09.2023 22:54 21,0 C 18,9 C 15,6 C 85 % 1020,0 hPa 0,0 l/m 0 min 0 min 0 W/m 0,0 km/h (0 Bft) 100,00 %
06.09.2023 22:56 20,9 C 18,9 C 15,6 C 85 % 1020,1 hPa 0,0 l/m 0 min 0 min 0 W/m 0,0 km/h (0 Bft) 95,74 %
06.09.2023 22:58 20,9 C 18,9 C 15,6 C 85 % 1020,0 hPa 0,0 l/m 0 min 0 min 0 W/m 0,0 km/h (0 Bft) 100,00 %
06.09.2023 23:00 20,8 C 18,9 C 15,6 C 86 % 1020,0 hPa 0,0 l/m 0 min 0 min 0 W/m 0,0 km/h (0 Bft) 97,87 %
06.09.2023 23:02 20,8 C 18,9 C 15,6 C 86 % 1020,0 hPa 0,0 l/m 0 min 0 min 0 W/m 0,0 km/h (0 Bft) 95,65 %
06.09.2023 23:04 20,8 C 18,9 C 15,6 C 86 % 1020,0 hPa 0,0 l/m 0 min 0 min 0 W/m 0,0 km/h (0 Bft) 100,00 %
06.09.2023 23:06 20,7 C 18,9 C 15,6 C 86 % 1020,0 hPa 0,0 l/m 0 min 0 min 0 W/m 0,0 km/h (0 Bft) 97,87 %
06.09.2023 23:08 20,7 C 18,9 C 15,0 C 86 % 1020,0 hPa 0,0 l/m 0 min 0 min 0 W/m 0,0 km/h (0 Bft) 97,87 %
06.09.2023 23:10 20,7 C 18,9 C 15,0 C 86 % 1020,0 hPa 0,0 l/m 0 min 0 min 0 W/m 0,0 km/h (0 Bft) 97,87 %
06.09.2023 23:12 20,7 C 18,9 C 15,0 C 86 % 1019,9 hPa 0,0 l/m 0 min 0 min 0 W/m 0,0 km/h (0 Bft) 95,74 %
06.09.2023 23:14 20,6 C 18,9 C 15,0 C 86 % 1019,9 hPa 0,0 l/m 0 min 0 min 0 W/m 0,0 km/h (0 Bft) 97,83 %
06.09.2023 23:16 20,6 C 18,9 C 15,0 C 86 % 1020,0 hPa 0,0 l/m 0 min 0 min 0 W/m 0,0 km/h (0 Bft) 97,22 %
06.09.2023 23:18 20,6 C 18,9 C 15,0 C 87 % 1020,0 hPa 0,0 l/m 0 min 0 min 0 W/m 0,0 km/h (0 Bft) 97,83 %
06.09.2023 23:20 20,5 C 18,9 C 15,0 C 87 % 1020,0 hPa 0,0 l/m 0 min 0 min 0 W/m 0,0 km/h (0 Bft) 97,87 %
06.09.2023 23:22 20,4 C 18,3 C 15,0 C 87 % 1020,1 hPa 0,0 l/m 0 min 0 min 0 W/m 0,0 km/h (0 Bft) 92,45 %
06.09.2023 23:24 20,4 C 18,3 C 15,0 C 87 % 1020,1 hPa 0,0 l/m 0 min 0 min 0 W/m 0,0 km/h (0 Bft) 97,87 %
06.09.2023 23:26 20,3 C 18,3 C 15,0 C 87 % 1020,0 hPa 0,0 l/m 0 min 0 min 0 W/m 0,0 km/h (0 Bft) 97,87 %
06.09.2023 23:28 20,3 C 18,3 C 15,0 C 87 % 1020,1 hPa 0,0 l/m 0 min 0 min 0 W/m 0,0 km/h (0 Bft) 97,87 %
06.09.2023 23:30 20,3 C 18,3 C 15,0 C 87 % 1020,1 hPa 0,0 l/m 0 min 0 min 0 W/m 0,0 km/h (0 Bft) 97,83 %
06.09.2023 23:32 20,2 C 18,3 C 15,0 C 87 % 1020,1 hPa 0,0 l/m 0 min 0 min 0 W/m 0,0 km/h (0 Bft) 97,92 %
06.09.2023 23:34 20,2 C 18,3 C 15,0 C 87 % 1020,1 hPa 0,0 l/m 0 min 0 min 0 W/m 0,0 km/h (0 Bft) 95,74 %
06.09.2023 23:36 20,1 C 18,3 C 15,0 C 88 % 1020,1 hPa 0,0 l/m 0 min 0 min 0 W/m 0,0 km/h (0 Bft) 100,00 %
06.09.2023 23:38 20,1 C 18,3 C 15,0 C 88 % 1020,1 hPa 0,0 l/m 0 min 0 min 0 W/m 0,0 km/h (0 Bft) 100,00 %
06.09.2023 23:40 20,1 C 18,3 C 15,0 C 88 % 1020,1 hPa 0,0 l/m 0 min 0 min 0 W/m 0,0 km/h (0 Bft) 100,00 %
06.09.2023 23:42 20,1 C 18,3 C 15,0 C 88 % 1020,1 hPa 0,0 l/m 0 min 0 min 0 W/m 0,0 km/h (0 Bft) 97,87 %
06.09.2023 23:44 20,0 C 18,3 C 15,0 C 88 % 1020,1 hPa 0,0 l/m 0 min 0 min 0 W/m 0,0 km/h (0 Bft) 100,00 %
06.09.2023 23:46 19,9 C 18,3 C 14,4 C 88 % 1020,1 hPa 0,0 l/m 0 min 0 min 0 W/m 0,0 km/h (0 Bft) 97,87 %
06.09.2023 23:48 19,9 C 18,3 C 14,4 C 88 % 1020,2 hPa 0,0 l/m 0 min 0 min 0 W/m 0,0 km/h (0 Bft) 100,00 %
06.09.2023 23:50 19,8 C 18,3 C 14,4 C 88 % 1020,2 hPa 0,0 l/m 0 min 0 min 0 W/m 0,0 km/h (0 Bft) 100,00 %
06.09.2023 23:52 19,8 C 17,8 C 14,4 C 88 % 1020,3 hPa 0,0 l/m 0 min 0 min 0 W/m 0,0 km/h (0 Bft) 97,87 %
06.09.2023 23:54 19,7 C 17,8 C 14,4 C 88 % 1020,3 hPa 0,0 l/m 0 min 0 min 0 W/m 0,0 km/h (0 Bft) 97,87 %
06.09.2023 23:56 19,7 C 17,8 C 14,4 C 88 % 1020,3 hPa 0,0 l/m 0 min 0 min 0 W/m 0,0 km/h (0 Bft) 100,00 %
06.09.2023 23:58 19,7 C 17,8 C 14,4 C 89 % 1020,3 hPa 0,0 l/m 0 min 0 min 0 W/m 0,0 km/h (0 Bft) 100,00 %
_ Min-Zeit 07:58 07:06 07:12 15:22 19:04 - - - - 00:22 04:02
Minimum _ 16,3 C 15,0 C 11,7 C 45 % 1018,9 hPa - - - - 0,0 km/h (0 Bft) 90,91 %
_ Max-Zeit 18:18 14:12 17:14 08:34 11:06 00:00 12:08 00:00 13:58 11:20 00:00
Maximum _ 32,1 C 36,7 C 26,1 C 93 % 1021,1 hPa 0,0 l/m 4 min 0 min 785 W/m 22,5 km/h
O-SO (4 Bft)
100,00 %
Durchschnitt _ 23,6 C 23,2 C 18,2 C 71 % 1019,9 hPa #0,0 l/m #6:32 h #0 min. 294 W/m 4,2 km/h (1 Bft) 97,53 %
© 2023 W. Hausmann